
Distance (Route):
Temperature : 24.8°C
Humidity : 0%
Pressure : 0hPa| Receiver | Frames | First received | Last received |
|---|---|---|---|
| ARGUS2 | 452 | 2026-09-05 11:16:33 | 2026-09-05 14:11:08 |
| Receiver | Date | Latitude | Longitude | Direction | Speed | Altitude | Climb | Temperature | Humidity | Pressure | Voltage | Killtimer | Uptime | BKT | XDATA |
|---|---|---|---|---|---|---|---|---|---|---|---|---|---|---|---|
| ARGUS2 | 2026-09-05 14:11:08 | 27.77773 | -82.84755 | 45° | 13km/h | 567m | -4.6m/s | 24.8°C | 0% | 0hPa | 0V | 00:00:00 | 00:00:00 | 00:00:00 | |
| ARGUS2 | 2026-09-05 14:10:46 | 27.77722 | -82.84808 | 43° | 11km/h | 662m | -4.2m/s | 24.1°C | 0% | 0hPa | 0V | 00:00:00 | 00:00:00 | 00:00:00 | |
| ARGUS2 | 2026-09-05 14:10:25 | 27.77670 | -82.84861 | 47° | 15km/h | 753m | -4.4m/s | 23.5°C | 0% | 0hPa | 0V | 00:00:00 | 00:00:00 | 00:00:00 | |
| ARGUS2 | 2026-09-05 14:10:05 | 27.77620 | -82.84923 | 52° | 15km/h | 849m | -4.8m/s | 22.8°C | 0% | 0hPa | 0V | 00:00:00 | 00:00:00 | 00:00:00 | |
| ARGUS2 | 2026-09-05 14:09:43 | 27.77579 | -82.85002 | 67° | 16km/h | 947m | -4.5m/s | 22.4°C | 0% | 0hPa | 0V | 00:00:00 | 00:00:00 | 00:00:00 | |
| ARGUS2 | 2026-09-05 14:09:23 | 27.77541 | -82.85084 | 59° | 16km/h | 1039m | -4.9m/s | 21.8°C | 0% | 0hPa | 0V | 00:00:00 | 00:00:00 | 00:00:00 | |
| ARGUS2 | 2026-09-05 14:08:42 | 27.77456 | -82.85280 | 70° | 20km/h | 1235m | -4.8m/s | 20.8°C | 0% | 0hPa | 0V | 00:00:00 | 00:00:00 | 00:00:00 | |
| ARGUS2 | 2026-09-05 14:08:22 | 27.77414 | -82.85388 | 68° | 20km/h | 1334m | -4.7m/s | 20.5°C | 0% | 0hPa | 0V | 00:00:00 | 00:00:00 | 00:00:00 | |
| ARGUS2 | 2026-09-05 14:08:01 | 27.77374 | -82.85493 | 69° | 18km/h | 1431m | -4.6m/s | 20.1°C | 0% | 0hPa | 0V | 00:00:00 | 00:00:00 | 00:00:00 | |
| ARGUS2 | 2026-09-05 14:07:40 | 27.77337 | -82.85603 | 73° | 20km/h | 1532m | -4.6m/s | 19.5°C | 0% | 0hPa | 0V | 00:00:00 | 00:00:00 | 00:00:00 | |
| ARGUS2 | 2026-09-05 14:07:20 | 27.77305 | -82.85712 | 69° | 20km/h | 1632m | -4.7m/s | 18.9°C | 0% | 0hPa | 0V | 00:00:00 | 00:00:00 | 00:00:00 | |
| ARGUS2 | 2026-09-05 14:06:59 | 27.77265 | -82.85822 | 70° | 20km/h | 1732m | -4.7m/s | 18.8°C | 0% | 0hPa | 0V | 00:00:00 | 00:00:00 | 00:00:00 | |
| ARGUS2 | 2026-09-05 14:06:34 | 27.77216 | -82.85958 | 67° | 22km/h | 1852m | -5.1m/s | 18.0°C | 0% | 0hPa | 0V | 00:00:00 | 00:00:00 | 00:00:00 | |
| ARGUS2 | 2026-09-05 14:04:38 | 27.77016 | -82.86478 | 54° | 16km/h | 2463m | -5.3m/s | 14.8°C | 0% | 0hPa | 0V | 00:00:00 | 00:00:00 | 00:00:00 | |
| ARGUS2 | 2026-09-05 14:04:03 | 27.76925 | -82.86593 | 47° | 18km/h | 2642m | -5.2m/s | 13.5°C | 0% | 0hPa | 0V | 00:00:00 | 00:00:00 | 00:00:00 | |
| ARGUS2 | 2026-09-05 14:03:43 | 27.76859 | -82.86661 | 42° | 16km/h | 2751m | -5.3m/s | 12.7°C | 0% | 0hPa | 0V | 00:00:00 | 00:00:00 | 00:00:00 | |
| ARGUS2 | 2026-09-05 14:03:18 | 27.76781 | -82.86733 | 34° | 16km/h | 2888m | -5.3m/s | 11.8°C | 0% | 0hPa | 0V | 00:00:00 | 00:00:00 | 00:00:00 | |
| ARGUS2 | 2026-09-05 14:02:57 | 27.76716 | -82.86786 | 42° | 16km/h | 2994m | -5.3m/s | 11.2°C | 0% | 0hPa | 0V | 00:00:00 | 00:00:00 | 00:00:00 | |
| ARGUS2 | 2026-09-05 14:02:37 | 27.76658 | -82.86840 | 41° | 13km/h | 3102m | -5.1m/s | 10.6°C | 0% | 0hPa | 0V | 00:00:00 | 00:00:00 | 00:00:00 | |
| ARGUS2 | 2026-09-05 14:02:15 | 27.76603 | -82.86884 | 36° | 13km/h | 3210m | -5.1m/s | 9.8°C | 0% | 0hPa | 0V | 00:00:00 | 00:00:00 | 00:00:00 | |
| ARGUS2 | 2026-09-05 14:01:55 | 27.76553 | -82.86923 | 35° | 13km/h | 3312m | -5.1m/s | 9.7°C | 0% | 0hPa | 0V | 00:00:00 | 00:00:00 | 00:00:00 | |
| ARGUS2 | 2026-09-05 14:01:34 | 27.76490 | -82.86967 | 32° | 13km/h | 3419m | -5.0m/s | 8.9°C | 0% | 0hPa | 0V | 00:00:00 | 00:00:00 | 00:00:00 | |
| ARGUS2 | 2026-09-05 14:01:14 | 27.76442 | -82.86999 | 29° | 11km/h | 3520m | -5.1m/s | 8.0°C | 0% | 0hPa | 0V | 00:00:00 | 00:00:00 | 00:00:00 | |
| ARGUS2 | 2026-09-05 14:00:53 | 27.76385 | -82.87026 | 16° | 11km/h | 3627m | -5.1m/s | 7.5°C | 0% | 0hPa | 0V | 00:00:00 | 00:00:00 | 00:00:00 | |
| ARGUS2 | 2026-09-05 14:00:33 | 27.76333 | -82.87048 | 27° | 9km/h | 3730m | -5.1m/s | 6.9°C | 0% | 0hPa | 0V | 00:00:00 | 00:00:00 | 00:00:00 | |
| ARGUS2 | 2026-09-05 14:00:13 | 27.76291 | -82.87065 | 20° | 7km/h | 3840m | -5.1m/s | 6.2°C | 0% | 0hPa | 0V | 00:00:00 | 00:00:00 | 00:00:00 | |
| ARGUS2 | 2026-09-05 13:59:52 | 27.76259 | -82.87081 | 19° | 5km/h | 3942m | -5.0m/s | 5.5°C | 0% | 0hPa | 0V | 00:00:00 | 00:00:00 | 00:00:00 | |
| ARGUS2 | 2026-09-05 13:59:31 | 27.76227 | -82.87098 | 32° | 7km/h | 4052m | -5.4m/s | 4.9°C | 0% | 0hPa | 0V | 00:00:00 | 00:00:00 | 00:00:00 | |
| ARGUS2 | 2026-09-05 13:59:11 | 27.76200 | -82.87118 | 30° | 5km/h | 4159m | -5.5m/s | 4.3°C | 0% | 0hPa | 0V | 00:00:00 | 00:00:00 | 00:00:00 | |
| ARGUS2 | 2026-09-05 13:58:50 | 27.76182 | -82.87133 | 51° | 4km/h | 4274m | -5.4m/s | 3.5°C | 0% | 0hPa | 0V | 00:00:00 | 00:00:00 | 00:00:00 | |
| ARGUS2 | 2026-09-05 13:58:30 | 27.76170 | -82.87156 | 75° | 4km/h | 4384m | -5.6m/s | 2.7°C | 0% | 0hPa | 0V | 00:00:00 | 00:00:00 | 00:00:00 | |
| ARGUS2 | 2026-09-05 13:58:10 | 27.76166 | -82.87173 | 0° | 0km/h | 4500m | -5.2m/s | 1.8°C | 0% | 0hPa | 0V | 00:00:00 | 00:00:00 | 00:00:00 | |
| ARGUS2 | 2026-09-05 13:57:48 | 27.76159 | -82.87182 | 67° | 2km/h | 4614m | -5.6m/s | 1.0°C | 0% | 0hPa | 0V | 00:00:00 | 00:00:00 | 00:00:00 | |
| ARGUS2 | 2026-09-05 13:57:27 | 27.76156 | -82.87201 | 85° | 4km/h | 4734m | -5.4m/s | 0.1°C | 0% | 0hPa | 0V | 00:00:00 | 00:00:00 | 00:00:00 | |
| ARGUS2 | 2026-09-05 13:57:06 | 27.76158 | -82.87229 | 88° | 5km/h | 4844m | -5.3m/s | -0.4°C | 0% | 0hPa | 0V | 00:00:00 | 00:00:00 | 00:00:00 | |
| ARGUS2 | 2026-09-05 13:56:46 | 27.76152 | -82.87267 | 70° | 7km/h | 4961m | -5.4m/s | -1.1°C | 0% | 0hPa | 0V | 00:00:00 | 00:00:00 | 00:00:00 | |
| ARGUS2 | 2026-09-05 13:56:25 | 27.76140 | -82.87303 | 79° | 5km/h | 5073m | -5.2m/s | -2.0°C | 0% | 0hPa | 0V | 00:00:00 | 00:00:00 | 00:00:00 | |
| ARGUS2 | 2026-09-05 13:56:05 | 27.76137 | -82.87340 | 76° | 7km/h | 5191m | -5.6m/s | -2.8°C | 0% | 0hPa | 0V | 00:00:00 | 00:00:00 | 00:00:00 | |
| ARGUS2 | 2026-09-05 13:55:44 | 27.76122 | -82.87378 | 62° | 7km/h | 5302m | -5.4m/s | -3.5°C | 0% | 0hPa | 0V | 00:00:00 | 00:00:00 | 00:00:00 | |
| ARGUS2 | 2026-09-05 13:55:23 | 27.76092 | -82.87417 | 48° | 9km/h | 5418m | -5.5m/s | -4.4°C | 0% | 0hPa | 0V | 00:00:00 | 00:00:00 | 00:00:00 | |
| ARGUS2 | 2026-09-05 13:55:02 | 27.76067 | -82.87466 | 75° | 11km/h | 5533m | -5.5m/s | -4.8°C | 0% | 0hPa | 0V | 00:00:00 | 00:00:00 | 00:00:00 | |
| ARGUS2 | 2026-09-05 13:54:42 | 27.76049 | -82.87542 | 74° | 13km/h | 5643m | -5.4m/s | -5.3°C | 0% | 0hPa | 0V | 00:00:00 | 00:00:00 | 00:00:00 | |
| ARGUS2 | 2026-09-05 13:54:22 | 27.76020 | -82.87620 | 74° | 15km/h | 5756m | -5.2m/s | -5.6°C | 0% | 0hPa | 0V | 00:00:00 | 00:00:00 | 00:00:00 | |
| ARGUS2 | 2026-09-05 13:54:01 | 27.75998 | -82.87693 | 62° | 13km/h | 5863m | -5.1m/s | -6.2°C | 0% | 0hPa | 0V | 00:00:00 | 00:00:00 | 00:00:00 | |
| ARGUS2 | 2026-09-05 13:53:40 | 27.75966 | -82.87763 | 67° | 13km/h | 5976m | -5.3m/s | -6.5°C | 0% | 0hPa | 0V | 00:00:00 | 00:00:00 | 00:00:00 | |
| ARGUS2 | 2026-09-05 13:53:20 | 27.75930 | -82.87845 | 65° | 16km/h | 6083m | -5.2m/s | -6.9°C | 0% | 0hPa | 0V | 00:00:00 | 00:00:00 | 00:00:00 | |
| ARGUS2 | 2026-09-05 13:52:59 | 27.75879 | -82.87928 | 47° | 18km/h | 6194m | -5.4m/s | -7.4°C | 0% | 0hPa | 0V | 00:00:00 | 00:00:00 | 00:00:00 | |
| ARGUS2 | 2026-09-05 13:52:39 | 27.75816 | -82.87999 | 49° | 16km/h | 6302m | -5.5m/s | -7.9°C | 0% | 0hPa | 0V | 00:00:00 | 00:00:00 | 00:00:00 | |
| ARGUS2 | 2026-09-05 13:52:19 | 27.75768 | -82.88060 | 46° | 9km/h | 6424m | -5.6m/s | -8.5°C | 0% | 0hPa | 0V | 00:00:00 | 00:00:00 | 00:00:00 | |
| ARGUS2 | 2026-09-05 13:51:58 | 27.75735 | -82.88092 | 39° | 7km/h | 6534m | -5.8m/s | -8.8°C | 0% | 0hPa | 0V | 00:00:00 | 00:00:00 | 00:00:00 | |
| ARGUS2 | 2026-09-05 13:51:38 | 27.75710 | -82.88123 | 55° | 7km/h | 6657m | -5.3m/s | -9.3°C | 0% | 0hPa | 0V | 00:00:00 | 00:00:00 | 00:00:00 | |
| ARGUS2 | 2026-09-05 13:51:17 | 27.75692 | -82.88162 | 80° | 9km/h | 6771m | -5.8m/s | -10.0°C | 0% | 0hPa | 0V | 00:00:00 | 00:00:00 | 00:00:00 | |
| ARGUS2 | 2026-09-05 13:50:57 | 27.75686 | -82.88225 | 94° | 11km/h | 6895m | -5.8m/s | -11.0°C | 0% | 0hPa | 0V | 00:00:00 | 00:00:00 | 00:00:00 | |
| ARGUS2 | 2026-09-05 13:50:35 | 27.75683 | -82.88287 | 77° | 9km/h | 7024m | -6.2m/s | -11.7°C | 0% | 0hPa | 0V | 00:00:00 | 00:00:00 | 00:00:00 | |
| ARGUS2 | 2026-09-05 13:50:15 | 27.75680 | -82.88342 | 91° | 9km/h | 7150m | -6.1m/s | -12.8°C | 0% | 0hPa | 0V | 00:00:00 | 00:00:00 | 00:00:00 | |
| ARGUS2 | 2026-09-05 13:49:54 | 27.75677 | -82.88397 | 78° | 9km/h | 7286m | -6.2m/s | -13.7°C | 0% | 0hPa | 0V | 00:00:00 | 00:00:00 | 00:00:00 | |
| ARGUS2 | 2026-09-05 13:49:34 | 27.75664 | -82.88437 | 62° | 7km/h | 7415m | -6.0m/s | -14.6°C | 0% | 0hPa | 0V | 00:00:00 | 00:00:00 | 00:00:00 | |
| ARGUS2 | 2026-09-05 13:49:13 | 27.75652 | -82.88465 | 66° | 4km/h | 7553m | -6.1m/s | -15.7°C | 0% | 0hPa | 0V | 00:00:00 | 00:00:00 | 00:00:00 | |
| ARGUS2 | 2026-09-05 13:48:53 | 27.75636 | -82.88477 | 356° | 5km/h | 7686m | -6.6m/s | -16.6°C | 0% | 0hPa | 0V | 00:00:00 | 00:00:00 | 00:00:00 | |
| ARGUS2 | 2026-09-05 13:48:32 | 27.75606 | -82.88466 | 327° | 5km/h | 7829m | -6.7m/s | -17.5°C | 0% | 0hPa | 0V | 00:00:00 | 00:00:00 | 00:00:00 | |
| ARGUS2 | 2026-09-05 13:48:12 | 27.75584 | -82.88450 | 334° | 4km/h | 7967m | -6.6m/s | -18.5°C | 0% | 0hPa | 0V | 00:00:00 | 00:00:00 | 00:00:00 | |
| ARGUS2 | 2026-09-05 13:47:51 | 27.75567 | -82.88437 | 297° | 4km/h | 8105m | -6.4m/s | -19.6°C | 0% | 0hPa | 0V | 00:00:00 | 00:00:00 | 00:00:00 | |
| ARGUS2 | 2026-09-05 13:47:31 | 27.75549 | -82.88410 | 316° | 7km/h | 8234m | -6.4m/s | -20.6°C | 0% | 0hPa | 0V | 00:00:00 | 00:00:00 | 00:00:00 | |
| ARGUS2 | 2026-09-05 13:46:49 | 27.75490 | -82.88377 | 333° | 5km/h | 8496m | -6.1m/s | -21.9°C | 0% | 0hPa | 0V | 00:00:00 | 00:00:00 | 00:00:00 | |
| ARGUS2 | 2026-09-05 13:46:28 | 27.75465 | -82.88371 | 358° | 2km/h | 8623m | -6.1m/s | -22.9°C | 0% | 0hPa | 0V | 00:00:00 | 00:00:00 | 00:00:00 | |
| ARGUS2 | 2026-09-05 13:46:06 | 27.75456 | -82.88365 | 332° | 2km/h | 8761m | -6.1m/s | -24.0°C | 0% | 0hPa | 0V | 00:00:00 | 00:00:00 | 00:00:00 | |
| ARGUS2 | 2026-09-05 13:45:42 | 27.75466 | -82.88358 | 228° | 4km/h | 8898m | -5.8m/s | -24.7°C | 0% | 0hPa | 0V | 00:00:00 | 00:00:00 | 00:00:00 | |
| ARGUS2 | 2026-09-05 13:45:22 | 27.75474 | -82.88337 | 292° | 4km/h | 9014m | -5.7m/s | -25.5°C | 0% | 0hPa | 0V | 00:00:00 | 00:00:00 | 00:00:00 | |
| ARGUS2 | 2026-09-05 13:45:01 | 27.75448 | -82.88311 | 327° | 11km/h | 9139m | -6.0m/s | -25.7°C | 0% | 0hPa | 0V | 00:00:00 | 00:00:00 | 00:00:00 | |
| ARGUS2 | 2026-09-05 13:44:40 | 27.75399 | -82.88260 | 309° | 11km/h | 9267m | -6.2m/s | -26.4°C | 0% | 0hPa | 0V | 00:00:00 | 00:00:00 | 00:00:00 | |
| ARGUS2 | 2026-09-05 13:44:20 | 27.75371 | -82.88203 | 290° | 11km/h | 9400m | -6.2m/s | -27.6°C | 0% | 0hPa | 0V | 00:00:00 | 00:00:00 | 00:00:00 | |
| ARGUS2 | 2026-09-05 13:43:51 | 27.75339 | -82.88108 | 297° | 16km/h | 9590m | -6.7m/s | -28.9°C | 0% | 0hPa | 0V | 00:00:00 | 00:00:00 | 00:00:00 | |
| ARGUS2 | 2026-09-05 13:43:22 | 27.75275 | -82.88010 | 318° | 13km/h | 9757m | -5.5m/s | -30.3°C | 0% | 0hPa | 0V | 00:00:00 | 00:00:00 | 00:00:00 | |
| ARGUS2 | 2026-09-05 13:43:01 | 27.75222 | -82.87948 | 312° | 15km/h | 9879m | -5.4m/s | -31.3°C | 0% | 0hPa | 0V | 00:00:00 | 00:00:00 | 00:00:00 | |
| ARGUS2 | 2026-09-05 13:42:40 | 27.75175 | -82.87888 | 313° | 15km/h | 9993m | -5.5m/s | -32.4°C | 0% | 0hPa | 0V | 00:00:00 | 00:00:00 | 00:00:00 | |
| ARGUS2 | 2026-09-05 13:42:20 | 27.75133 | -82.87817 | 295° | 15km/h | 10111m | -5.8m/s | -33.3°C | 0% | 0hPa | 0V | 00:00:00 | 00:00:00 | 00:00:00 | |
| ARGUS2 | 2026-09-05 13:41:58 | 27.75099 | -82.87733 | 296° | 15km/h | 10230m | -5.5m/s | -34.1°C | 0% | 0hPa | 0V | 00:00:00 | 00:00:00 | 00:00:00 | |
| ARGUS2 | 2026-09-05 13:41:38 | 27.75066 | -82.87666 | 301° | 13km/h | 10342m | -5.8m/s | -35.2°C | 0% | 0hPa | 0V | 00:00:00 | 00:00:00 | 00:00:00 | |
| ARGUS2 | 2026-09-05 13:41:17 | 27.75023 | -82.87610 | 320° | 11km/h | 10460m | -6.0m/s | -36.2°C | 0% | 0hPa | 0V | 00:00:00 | 00:00:00 | 00:00:00 | |
| ARGUS2 | 2026-09-05 13:40:57 | 27.74965 | -82.87575 | 346° | 16km/h | 10574m | -5.8m/s | -37.2°C | 0% | 0hPa | 0V | 00:00:00 | 00:00:00 | 00:00:00 | |
| ARGUS2 | 2026-09-05 13:40:36 | 27.74889 | -82.87555 | 360° | 11km/h | 10695m | -5.8m/s | -37.7°C | 0% | 0hPa | 0V | 00:00:00 | 00:00:00 | 00:00:00 | |
| ARGUS2 | 2026-09-05 13:40:16 | 27.74838 | -82.87566 | 10° | 11km/h | 10809m | -5.6m/s | -38.3°C | 0% | 0hPa | 0V | 00:00:00 | 00:00:00 | 00:00:00 | |
| ARGUS2 | 2026-09-05 13:39:55 | 27.74771 | -82.87579 | 11° | 13km/h | 10930m | -5.8m/s | -39.4°C | 0% | 0hPa | 0V | 00:00:00 | 00:00:00 | 00:00:00 | |
| ARGUS2 | 2026-09-05 13:39:35 | 27.74699 | -82.87597 | 19° | 16km/h | 11046m | -5.6m/s | -40.3°C | 0% | 0hPa | 0V | 00:00:00 | 00:00:00 | 00:00:00 | |
| ARGUS2 | 2026-09-05 13:39:15 | 27.74601 | -82.87635 | 21° | 22km/h | 11167m | -5.8m/s | -41.2°C | 0% | 0hPa | 0V | 00:00:00 | 00:00:00 | 00:00:00 | |
| ARGUS2 | 2026-09-05 13:38:54 | 27.74490 | -82.87685 | 23° | 24km/h | 11281m | -5.4m/s | -41.9°C | 0% | 0hPa | 0V | 00:00:00 | 00:00:00 | 00:00:00 | |
| ARGUS2 | 2026-09-05 13:38:34 | 27.74377 | -82.87745 | 30° | 24km/h | 11400m | -5.7m/s | -42.8°C | 0% | 0hPa | 0V | 00:00:00 | 00:00:00 | 00:00:00 | |
| ARGUS2 | 2026-09-05 13:38:13 | 27.74272 | -82.87817 | 37° | 24km/h | 11513m | -5.5m/s | -43.8°C | 0% | 0hPa | 0V | 00:00:00 | 00:00:00 | 00:00:00 | |
| ARGUS2 | 2026-09-05 13:37:53 | 27.74179 | -82.87904 | 47° | 22km/h | 11631m | -5.8m/s | -44.6°C | 0% | 0hPa | 0V | 00:00:00 | 00:00:00 | 00:00:00 | |
| ARGUS2 | 2026-09-05 13:37:32 | 27.74097 | -82.87995 | 42° | 22km/h | 11743m | -5.5m/s | -45.0°C | 0% | 0hPa | 0V | 00:00:00 | 00:00:00 | 00:00:00 | |
| ARGUS2 | 2026-09-05 13:37:12 | 27.74012 | -82.88076 | 36° | 20km/h | 11862m | -5.7m/s | -46.0°C | 0% | 0hPa | 0V | 00:00:00 | 00:00:00 | 00:00:00 | |
| ARGUS2 | 2026-09-05 13:36:50 | 27.73912 | -82.88145 | 24° | 22km/h | 11978m | -5.5m/s | -46.9°C | 0% | 0hPa | 0V | 00:00:00 | 00:00:00 | 00:00:00 | |
| ARGUS2 | 2026-09-05 13:36:30 | 27.73806 | -82.88177 | 9° | 22km/h | 12098m | -5.9m/s | -48.0°C | 0% | 0hPa | 0V | 00:00:00 | 00:00:00 | 00:00:00 | |
| ARGUS2 | 2026-09-05 13:36:09 | 27.73705 | -82.88190 | 8° | 16km/h | 12221m | -6.0m/s | -49.1°C | 0% | 0hPa | 0V | 00:00:00 | 00:00:00 | 00:00:00 | |
| ARGUS2 | 2026-09-05 13:35:49 | 27.73607 | -82.88206 | 16° | 22km/h | 12340m | -5.9m/s | -49.6°C | 0% | 0hPa | 0V | 00:00:00 | 00:00:00 | 00:00:00 | |
| ARGUS2 | 2026-09-05 13:35:28 | 27.73502 | -82.88263 | 36° | 22km/h | 12464m | -6.0m/s | -50.6°C | 0% | 0hPa | 0V | 00:00:00 | 00:00:00 | 00:00:00 | |
| ARGUS2 | 2026-09-05 13:35:08 | 27.73418 | -82.88345 | 43° | 22km/h | 12579m | -5.5m/s | -51.6°C | 0% | 0hPa | 0V | 00:00:00 | 00:00:00 | 00:00:00 | |
| ARGUS2 | 2026-09-05 13:34:48 | 27.73331 | -82.88443 | 50° | 22km/h | 12704m | -6.2m/s | -52.7°C | 0% | 0hPa | 0V | 00:00:00 | 00:00:00 | 00:00:00 | |
| ARGUS2 | 2026-09-05 13:34:27 | 27.73262 | -82.88535 | 42° | 20km/h | 12822m | -5.9m/s | -53.5°C | 0% | 0hPa | 0V | 00:00:00 | 00:00:00 | 00:00:00 | |
| ARGUS2 | 2026-09-05 13:34:07 | 27.73189 | -82.88617 | 51° | 20km/h | 12944m | -5.5m/s | -54.5°C | 0% | 0hPa | 0V | 00:00:00 | 00:00:00 | 00:00:00 | |
| ARGUS2 | 2026-09-05 13:33:46 | 27.73134 | -82.88718 | 68° | 22km/h | 13059m | -5.8m/s | -55.3°C | 0% | 0hPa | 0V | 00:00:00 | 00:00:00 | 00:00:00 | |
| ARGUS2 | 2026-09-05 13:33:26 | 27.73092 | -82.88828 | 63° | 16km/h | 13183m | -5.9m/s | -56.1°C | 0% | 0hPa | 0V | 00:00:00 | 00:00:00 | 00:00:00 | |
| ARGUS2 | 2026-09-05 13:33:05 | 27.73060 | -82.88897 | 57° | 11km/h | 13301m | -6.1m/s | -56.6°C | 0% | 0hPa | 0V | 00:00:00 | 00:00:00 | 00:00:00 | |
| ARGUS2 | 2026-09-05 13:32:45 | 27.73016 | -82.88940 | 32° | 11km/h | 13424m | -5.9m/s | -57.7°C | 0% | 0hPa | 0V | 00:00:00 | 00:00:00 | 00:00:00 | |
| ARGUS2 | 2026-09-05 13:32:24 | 27.72979 | -82.88950 | 354° | 9km/h | 13578m | -8.4m/s | -58.7°C | 0% | 0hPa | 0V | 00:00:00 | 00:00:00 | 00:00:00 | |
| ARGUS2 | 2026-09-05 13:32:04 | 27.72921 | -82.88903 | 323° | 13km/h | 13750m | -7.6m/s | -59.4°C | 0% | 0hPa | 0V | 00:00:00 | 00:00:00 | 00:00:00 | |
| ARGUS2 | 2026-09-05 13:31:23 | 27.72783 | -82.88714 | 308° | 22km/h | 13997m | -5.6m/s | -61.3°C | 0% | 0hPa | 0V | 00:00:00 | 00:00:00 | 00:00:00 | |
| ARGUS2 | 2026-09-05 13:31:01 | 27.72701 | -82.88597 | 313° | 27km/h | 14126m | -6.1m/s | -62.4°C | 0% | 0hPa | 0V | 00:00:00 | 00:00:00 | 00:00:00 | |
| ARGUS2 | 2026-09-05 13:30:40 | 27.72594 | -82.88495 | 328° | 29km/h | 14255m | -5.6m/s | -63.0°C | 0% | 0hPa | 0V | 00:00:00 | 00:00:00 | 00:00:00 | |
| ARGUS2 | 2026-09-05 13:30:19 | 27.72463 | -82.88403 | 327° | 27km/h | 14386m | -6.0m/s | -63.4°C | 0% | 0hPa | 0V | 00:00:00 | 00:00:00 | 00:00:00 | |
| ARGUS2 | 2026-09-05 13:29:59 | 27.72339 | -82.88309 | 329° | 26km/h | 14515m | -5.7m/s | -64.1°C | 0% | 0hPa | 0V | 00:00:00 | 00:00:00 | 00:00:00 | |
| ARGUS2 | 2026-09-05 13:29:37 | 27.72223 | -82.88244 | 335° | 26km/h | 14640m | -6.0m/s | -64.9°C | 0% | 0hPa | 0V | 00:00:00 | 00:00:00 | 00:00:00 | |
| ARGUS2 | 2026-09-05 13:27:27 | 27.71628 | -82.87575 | 306° | 33km/h | 15381m | -5.3m/s | -67.0°C | 0% | 0hPa | 0V | 00:00:00 | 00:00:00 | 00:00:00 | |
| ARGUS2 | 2026-09-05 13:27:06 | 27.71547 | -82.87453 | 308° | 20km/h | 15497m | -5.4m/s | -67.4°C | 0% | 0hPa | 0V | 00:00:00 | 00:00:00 | 00:00:00 | |
| ARGUS2 | 2026-09-05 13:26:46 | 27.71514 | -82.87375 | 278° | 15km/h | 15612m | -5.9m/s | -68.0°C | 0% | 0hPa | 0V | 00:00:00 | 00:00:00 | 00:00:00 | |
| ARGUS2 | 2026-09-05 13:26:25 | 27.71522 | -82.87305 | 255° | 11km/h | 15735m | -5.4m/s | -68.9°C | 0% | 0hPa | 0V | 00:00:00 | 00:00:00 | 00:00:00 | |
| ARGUS2 | 2026-09-05 13:26:05 | 27.71563 | -82.87228 | 233° | 22km/h | 15856m | -5.8m/s | -69.5°C | 0% | 0hPa | 0V | 00:00:00 | 00:00:00 | 00:00:00 | |
| ARGUS2 | 2026-09-05 13:25:45 | 27.71645 | -82.87113 | 232° | 27km/h | 15976m | -5.8m/s | -70.0°C | 0% | 0hPa | 0V | 00:00:00 | 00:00:00 | 00:00:00 | |
| ARGUS2 | 2026-09-05 13:25:24 | 27.71712 | -82.87018 | 241° | 16km/h | 16090m | -5.5m/s | -69.9°C | 0% | 0hPa | 0V | 00:00:00 | 00:00:00 | 00:00:00 | |
| ARGUS2 | 2026-09-05 13:25:04 | 27.71744 | -82.86945 | 230° | 15km/h | 16208m | -5.4m/s | -69.4°C | 0% | 0hPa | 0V | 00:00:00 | 00:00:00 | 00:00:00 | |
| ARGUS2 | 2026-09-05 13:24:43 | 27.71814 | -82.86884 | 217° | 22km/h | 16321m | -5.4m/s | -69.7°C | 0% | 0hPa | 0V | 00:00:00 | 00:00:00 | 00:00:00 | |
| ARGUS2 | 2026-09-05 13:24:23 | 27.71914 | -82.86792 | 218° | 27km/h | 16439m | -5.1m/s | -70.5°C | 0% | 0hPa | 0V | 00:00:00 | 00:00:00 | 00:00:00 | |
| ARGUS2 | 2026-09-05 13:24:02 | 27.72031 | -82.86685 | 224° | 31km/h | 16559m | -5.4m/s | -71.1°C | 0% | 0hPa | 0V | 00:00:00 | 00:00:00 | 00:00:00 | |
| ARGUS2 | 2026-09-05 13:23:41 | 27.72155 | -82.86559 | 220° | 37km/h | 16671m | -5.8m/s | -71.7°C | 0% | 0hPa | 0V | 00:00:00 | 00:00:00 | 00:00:00 | |
| ARGUS2 | 2026-09-05 13:23:20 | 27.72303 | -82.86415 | 227° | 35km/h | 16790m | -5.6m/s | -72.4°C | 0% | 0hPa | 0V | 00:00:00 | 00:00:00 | 00:00:00 | |
| ARGUS2 | 2026-09-05 13:23:00 | 27.72394 | -82.86255 | 246° | 35km/h | 16907m | -5.9m/s | -72.8°C | 0% | 0hPa | 0V | 00:00:00 | 00:00:00 | 00:00:00 | |
| ARGUS2 | 2026-09-05 13:22:40 | 27.72446 | -82.86066 | 261° | 29km/h | 17034m | -6.4m/s | -72.2°C | 0% | 0hPa | 0V | 00:00:00 | 00:00:00 | 00:00:00 | |
| ARGUS2 | 2026-09-05 13:22:19 | 27.72473 | -82.85912 | 262° | 20km/h | 17166m | -6.3m/s | -70.8°C | 0% | 0hPa | 0V | 00:00:00 | 00:00:00 | 00:00:00 | |
| ARGUS2 | 2026-09-05 13:21:58 | 27.72495 | -82.85842 | 241° | 11km/h | 17306m | -6.3m/s | -69.9°C | 0% | 0hPa | 0V | 00:00:00 | 00:00:00 | 00:00:00 | |
| ARGUS2 | 2026-09-05 13:21:37 | 27.72552 | -82.85764 | 230° | 27km/h | 17449m | -6.8m/s | -69.5°C | 0% | 0hPa | 0V | 00:00:00 | 00:00:00 | 00:00:00 | |
| ARGUS2 | 2026-09-05 13:21:16 | 27.72642 | -82.85605 | 247° | 38km/h | 17592m | -7.4m/s | -69.5°C | 0% | 0hPa | 0V | 00:00:00 | 00:00:00 | 00:00:00 | |
| ARGUS2 | 2026-09-05 13:19:43 | 27.72664 | -82.84723 | 224° | 13km/h | 18283m | -6.8m/s | -67.7°C | 0% | 0hPa | 0V | 00:00:00 | 00:00:00 | 00:00:00 | |
| ARGUS2 | 2026-09-05 13:19:07 | 27.72719 | -82.84418 | 282° | 26km/h | 18529m | -6.7m/s | -63.5°C | 0% | 0hPa | 0V | 00:00:00 | 00:00:00 | 00:00:00 | |
| ARGUS2 | 2026-09-05 13:18:47 | 27.72669 | -82.84286 | 303° | 26km/h | 18661m | -6.3m/s | -63.1°C | 0% | 0hPa | 0V | 00:00:00 | 00:00:00 | 00:00:00 | |
| ARGUS2 | 2026-09-05 13:18:25 | 27.72602 | -82.84206 | 333° | 11km/h | 18801m | -6.7m/s | -63.3°C | 0% | 0hPa | 0V | 00:00:00 | 00:00:00 | 00:00:00 | |
| ARGUS2 | 2026-09-05 13:18:05 | 27.72583 | -82.84178 | 262° | 7km/h | 18939m | -7.0m/s | -62.6°C | 0% | 0hPa | 0V | 00:00:00 | 00:00:00 | 00:00:00 | |
| ARGUS2 | 2026-09-05 13:17:44 | 27.72602 | -82.84091 | 265° | 16km/h | 19087m | -7.4m/s | -60.4°C | 0% | 0hPa | 0V | 00:00:00 | 00:00:00 | 00:00:00 | |
| ARGUS2 | 2026-09-05 13:17:24 | 27.72610 | -82.84019 | 254° | 7km/h | 19238m | -7.6m/s | -61.5°C | 0% | 0hPa | 0V | 00:00:00 | 00:00:00 | 00:00:00 | |
| ARGUS2 | 2026-09-05 13:17:03 | 27.72632 | -82.84012 | 151° | 7km/h | 19402m | -7.8m/s | -61.7°C | 0% | 0hPa | 0V | 00:00:00 | 00:00:00 | 00:00:00 | |
| ARGUS2 | 2026-09-05 13:16:43 | 27.72693 | -82.83992 | 214° | 16km/h | 19565m | -8.1m/s | -61.3°C | 0% | 0hPa | 0V | 00:00:00 | 00:00:00 | 00:00:00 | |
| ARGUS2 | 2026-09-05 13:16:22 | 27.72750 | -82.83875 | 257° | 27km/h | 19737m | -8.1m/s | -60.2°C | 0% | 0hPa | 0V | 00:00:00 | 00:00:00 | 00:00:00 | |
| ARGUS2 | 2026-09-05 13:16:02 | 27.72760 | -82.83781 | 243° | 7km/h | 19903m | -7.9m/s | -59.9°C | 0% | 0hPa | 0V | 00:00:00 | 00:00:00 | 00:00:00 | |
| ARGUS2 | 2026-09-05 13:15:42 | 27.72773 | -82.83773 | 195° | 9km/h | 20076m | -8.2m/s | -60.0°C | 0% | 0hPa | 0V | 00:00:00 | 00:00:00 | 00:00:00 | |
| ARGUS2 | 2026-09-05 13:15:21 | 27.72799 | -82.83702 | 272° | 24km/h | 20241m | -7.6m/s | -59.7°C | 0% | 0hPa | 0V | 00:00:00 | 00:00:00 | 00:00:00 | |
| ARGUS2 | 2026-09-05 13:15:01 | 27.72781 | -82.83523 | 281° | 24km/h | 20402m | -7.6m/s | -59.0°C | 0% | 0hPa | 0V | 00:00:00 | 00:00:00 | 00:00:00 | |
| ARGUS2 | 2026-09-05 13:13:48 | 27.72885 | -82.83249 | 212° | 11km/h | 21007m | -8.6m/s | -58.8°C | 0% | 0hPa | 0V | 00:00:00 | 00:00:00 | 00:00:00 | |
| ARGUS2 | 2026-09-05 13:13:27 | 27.72932 | -82.83173 | 243° | 22km/h | 21184m | -9.1m/s | -58.8°C | 0% | 0hPa | 0V | 00:00:00 | 00:00:00 | 00:00:00 | |
| ARGUS2 | 2026-09-05 13:13:06 | 27.72955 | -82.83015 | 285° | 27km/h | 21377m | -9.2m/s | 0°C | 0% | 0hPa | 0V | 00:00:00 | 00:00:00 | 00:00:00 | |
| ARGUS2 | 2026-09-05 13:12:44 | 27.72944 | -82.82800 | 276° | 40km/h | 21587m | -9.8m/s | -58.0°C | 0% | 0hPa | 0V | 00:00:00 | 00:00:00 | 00:00:00 | |
| ARGUS2 | 2026-09-05 13:12:23 | 27.72920 | -82.82598 | 274° | 27km/h | 21795m | -9.8m/s | -58.4°C | 0% | 0hPa | 0V | 00:00:00 | 00:00:00 | 00:00:00 | |
| ARGUS2 | 2026-09-05 13:12:03 | 27.72961 | -82.82412 | 254° | 38km/h | 21997m | -10.3m/s | -56.7°C | 0% | 0hPa | 0V | 00:00:00 | 00:00:00 | 00:00:00 | |
| ARGUS2 | 2026-09-05 13:11:43 | 27.73030 | -82.82174 | 250° | 46km/h | 22214m | -10.3m/s | -56.7°C | 0% | 0hPa | 0V | 00:00:00 | 00:00:00 | 00:00:00 | |
| ARGUS2 | 2026-09-05 13:11:22 | 27.73125 | -82.81875 | 255° | 57km/h | 22423m | -10.3m/s | -56.6°C | 0% | 0hPa | 0V | 00:00:00 | 00:00:00 | 00:00:00 | |
| ARGUS2 | 2026-09-05 13:11:01 | 27.73191 | -82.81580 | 260° | 47km/h | 22646m | -10.8m/s | -56.7°C | 0% | 0hPa | 0V | 00:00:00 | 00:00:00 | 00:00:00 | |
| ARGUS2 | 2026-09-05 13:10:41 | 27.73156 | -82.81259 | 288° | 60km/h | 22865m | -10.8m/s | -56.0°C | 0% | 0hPa | 0V | 00:00:00 | 00:00:00 | 00:00:00 | |
| ARGUS2 | 2026-09-05 13:10:21 | 27.73080 | -82.80942 | 281° | 46km/h | 23100m | -10.8m/s | -57.1°C | 0% | 0hPa | 0V | 00:00:00 | 00:00:00 | 00:00:00 | |
| ARGUS2 | 2026-09-05 13:10:00 | 27.73037 | -82.80672 | 287° | 51km/h | 23331m | -11.3m/s | -57.1°C | 0% | 0hPa | 0V | 00:00:00 | 00:00:00 | 00:00:00 | |
| ARGUS2 | 2026-09-05 13:09:40 | 27.72948 | -82.80386 | 289° | 46km/h | 23582m | -12.1m/s | -56.4°C | 0% | 0hPa | 0V | 00:00:00 | 00:00:00 | 00:00:00 | |
| ARGUS2 | 2026-09-05 13:09:19 | 27.72899 | -82.80143 | 283° | 51km/h | 23830m | -12.6m/s | -55.6°C | 0% | 0hPa | 0V | 00:00:00 | 00:00:00 | 00:00:00 | |
| ARGUS2 | 2026-09-05 13:08:59 | 27.72816 | -82.79831 | 291° | 42km/h | 24096m | -12.6m/s | -53.8°C | 0% | 0hPa | 0V | 00:00:00 | 00:00:00 | 00:00:00 | |
| ARGUS2 | 2026-09-05 13:08:37 | 27.72760 | -82.79596 | 285° | 42km/h | 24371m | -13.1m/s | -52.6°C | 0% | 0hPa | 0V | 00:00:00 | 00:00:00 | 00:00:00 | |
| ARGUS2 | 2026-09-05 13:08:17 | 27.72730 | -82.79381 | 269° | 40km/h | 24651m | -13.5m/s | -51.4°C | 0% | 0hPa | 0V | 00:00:00 | 00:00:00 | 00:00:00 | |
| ARGUS2 | 2026-09-05 13:07:55 | 27.72744 | -82.79114 | 272° | 42km/h | 24937m | -14.1m/s | -51.8°C | 0% | 0hPa | 0V | 00:00:00 | 00:00:00 | 00:00:00 | |
| ARGUS2 | 2026-09-05 13:07:35 | 27.72742 | -82.78946 | 249° | 26km/h | 25228m | -13.9m/s | -51.7°C | 0% | 0hPa | 0V | 00:00:00 | 00:00:00 | 00:00:00 | |
| ARGUS2 | 2026-09-05 13:07:14 | 27.72839 | -82.78706 | 246° | 64km/h | 25509m | -14.2m/s | -51.7°C | 0% | 0hPa | 0V | 00:00:00 | 00:00:00 | 00:00:00 | |
| ARGUS2 | 2026-09-05 13:06:54 | 27.72943 | -82.78325 | 261° | 71km/h | 25813m | -14.8m/s | -50.6°C | 0% | 0hPa | 0V | 00:00:00 | 00:00:00 | 00:00:00 | |
| ARGUS2 | 2026-09-05 13:06:32 | 27.72941 | -82.77922 | 282° | 60km/h | 26130m | -14.9m/s | -50.7°C | 0% | 0hPa | 0V | 00:00:00 | 00:00:00 | 00:00:00 | |
| ARGUS2 | 2026-09-05 13:06:12 | 27.72898 | -82.77672 | 272° | 37km/h | 26433m | -15.1m/s | -50.1°C | 0% | 0hPa | 0V | 00:00:00 | 00:00:00 | 00:00:00 | |
| ARGUS2 | 2026-09-05 13:05:51 | 27.72972 | -82.77458 | 241° | 49km/h | 26767m | -16.2m/s | -50.2°C | 0% | 0hPa | 0V | 00:00:00 | 00:00:00 | 00:00:00 | |
| ARGUS2 | 2026-09-05 13:05:31 | 27.73099 | -82.77152 | 253° | 62km/h | 27093m | -16.7m/s | -50.2°C | 0% | 0hPa | 0V | 00:00:00 | 00:00:00 | 00:00:00 | |
| ARGUS2 | 2026-09-05 13:05:10 | 27.73192 | -82.76771 | 257° | 69km/h | 27443m | -17.1m/s | -48.4°C | 0% | 0hPa | 0V | 00:00:00 | 00:00:00 | 00:00:00 | |
| ARGUS2 | 2026-09-05 13:04:50 | 27.73298 | -82.76403 | 251° | 69km/h | 27786m | -17.3m/s | -47.1°C | 0% | 0hPa | 0V | 00:00:00 | 00:00:00 | 00:00:00 | |
| ARGUS2 | 2026-09-05 13:04:29 | 27.73357 | -82.75946 | 278° | 80km/h | 28151m | -17.5m/s | -46.8°C | 0% | 0hPa | 0V | 00:00:00 | 00:00:00 | 00:00:00 | |
| ARGUS2 | 2026-09-05 13:04:09 | 27.73293 | -82.75563 | 274° | 46km/h | 28508m | -18.2m/s | -46.4°C | 0% | 0hPa | 0V | 00:00:00 | 00:00:00 | 00:00:00 | |
| ARGUS2 | 2026-09-05 13:03:48 | 27.73295 | -82.75310 | 243° | 42km/h | 28893m | -18.7m/s | -45.3°C | 0% | 0hPa | 0V | 00:00:00 | 00:00:00 | 00:00:00 | |
| ARGUS2 | 2026-09-05 13:03:28 | 27.73468 | -82.75075 | 241° | 62km/h | 29258m | -15.5m/s | -46.6°C | 0% | 0hPa | 0V | 00:00:00 | 00:00:00 | 00:00:00 | |
| ARGUS2 | 2026-09-05 13:03:08 | 27.73728 | -82.74740 | 232° | 73km/h | 29576m | -15.2m/s | -47.4°C | 0% | 0hPa | 0V | 00:00:00 | 00:00:00 | 00:00:00 | |
| ARGUS2 | 2026-09-05 13:02:46 | 27.73906 | -82.74348 | 265° | 58km/h | 30036m | -26.8m/s | -45.8°C | 0% | 0hPa | 0V | 00:00:00 | 00:00:00 | 00:00:00 | |
| ARGUS2 | 2026-09-05 13:02:25 | 27.73947 | -82.74013 | 255° | 68km/h | 30670m | -31.0m/s | -43.8°C | 0% | 0hPa | 0V | 00:00:00 | 00:00:00 | 00:00:00 | |
| ARGUS2 | 2026-09-05 13:02:04 | 27.73890 | -82.73614 | 279° | 95km/h | 31385m | -34.7m/s | -39.5°C | 0% | 0hPa | 0V | 00:00:00 | 00:00:00 | 00:00:00 | |
| ARGUS2 | 2026-09-05 13:01:43 | 27.73732 | -82.73259 | 310° | 66km/h | 32110m | -33.5m/s | -36.2°C | 0% | 0hPa | 0V | 00:00:00 | 00:00:00 | 00:00:00 | |
| ARGUS2 | 2026-09-05 13:01:18 | 27.73599 | -82.72998 | 254° | 37km/h | 32895m | -24.2m/s | -36.4°C | 0% | 0hPa | 0V | 00:00:00 | 00:00:00 | 00:00:00 | |
| ARGUS2 | 2026-09-05 13:00:55 | 27.73682 | -82.72836 | 249° | 91km/h | 33337m | 9.6m/s | -37.6°C | 0% | 0hPa | 0V | 00:00:00 | 00:00:00 | 00:00:00 | |
| ARGUS2 | 2026-09-05 13:00:30 | 27.73800 | -82.72557 | 243° | 78km/h | 33185m | 4.1m/s | -37.3°C | 0% | 0hPa | 0V | 00:00:00 | 00:00:00 | 00:00:00 | |
| ARGUS2 | 2026-09-05 13:00:05 | 27.73844 | -82.72288 | 259° | 84km/h | 33017m | 2.1m/s | -36.7°C | 0% | 0hPa | 0V | 00:00:00 | 00:00:00 | 00:00:00 | |
| ARGUS2 | 2026-09-05 12:59:44 | 27.73815 | -82.72074 | 349° | 42km/h | 32885m | 9.1m/s | -36.1°C | 0% | 0hPa | 0V | 00:00:00 | 00:00:00 | 00:00:00 | |
| ARGUS2 | 2026-09-05 12:59:24 | 27.73777 | -82.71870 | 222° | 53km/h | 32749m | 7.6m/s | -35.8°C | 0% | 0hPa | 0V | 00:00:00 | 00:00:00 | 00:00:00 | |
| ARGUS2 | 2026-09-05 12:59:03 | 27.73679 | -82.71652 | 309° | 82km/h | 32622m | 4.2m/s | -34.8°C | 0% | 0hPa | 0V | 00:00:00 | 00:00:00 | 00:00:00 | |
| ARGUS2 | 2026-09-05 12:58:42 | 27.73504 | -82.71516 | 258° | 24km/h | 32480m | 4.6m/s | -34.8°C | 0% | 0hPa | 0V | 00:00:00 | 00:00:00 | 00:00:00 | |
| ARGUS2 | 2026-09-05 12:58:21 | 27.73278 | -82.71348 | 243° | 42km/h | 32356m | 6.9m/s | -35.2°C | 0% | 0hPa | 0V | 00:00:00 | 00:00:00 | 00:00:00 | |
| ARGUS2 | 2026-09-05 12:57:49 | 27.73049 | -82.71023 | 281° | 99km/h | 32166m | 3.1m/s | -36.1°C | 0% | 0hPa | 0V | 00:00:00 | 00:00:00 | 00:00:00 | |
| ARGUS2 | 2026-09-05 12:57:29 | 27.72828 | -82.70682 | 340° | 80km/h | 32037m | 2.4m/s | -37.1°C | 0% | 0hPa | 0V | 00:00:00 | 00:00:00 | 00:00:00 | |
| ARGUS2 | 2026-09-05 12:57:08 | 27.72652 | -82.70353 | 275° | 89km/h | 31922m | 8.9m/s | -37.2°C | 0% | 0hPa | 0V | 00:00:00 | 00:00:00 | 00:00:00 | |
| ARGUS2 | 2026-09-05 12:56:47 | 27.72500 | -82.69985 | 320° | 57km/h | 31789m | 8.6m/s | -38.4°C | 0% | 0hPa | 0V | 00:00:00 | 00:00:00 | 00:00:00 | |
| ARGUS2 | 2026-09-05 12:56:26 | 27.72400 | -82.69675 | 261° | 64km/h | 31673m | 1.1m/s | -39.3°C | 0% | 0hPa | 0V | 00:00:00 | 00:00:00 | 00:00:00 | |
| ARGUS2 | 2026-09-05 12:56:06 | 27.72259 | -82.69266 | 308° | 102km/h | 31543m | 2.5m/s | -40.3°C | 0% | 0hPa | 0V | 00:00:00 | 00:00:00 | 00:00:00 | |
| ARGUS2 | 2026-09-05 12:55:45 | 27.72141 | -82.68827 | 280° | 66km/h | 31428m | 9.6m/s | -40.4°C | 0% | 0hPa | 0V | 00:00:00 | 00:00:00 | 00:00:00 | |
| ARGUS2 | 2026-09-05 12:55:25 | 27.72038 | -82.68457 | 303° | 57km/h | 31309m | 7.1m/s | -41.5°C | 0% | 0hPa | 0V | 00:00:00 | 00:00:00 | 00:00:00 | |
| ARGUS2 | 2026-09-05 12:54:44 | 27.71942 | -82.67795 | 241° | 29km/h | 31072m | 3.0m/s | -42.5°C | 0% | 0hPa | 0V | 00:00:00 | 00:00:00 | 00:00:00 | |
| ARGUS2 | 2026-09-05 12:54:02 | 27.71900 | -82.67109 | 260° | 47km/h | 30842m | 7.2m/s | -45.0°C | 0% | 0hPa | 0V | 00:00:00 | 00:00:00 | 00:00:00 | |
| ARGUS2 | 2026-09-05 12:53:42 | 27.71961 | -82.66747 | 257° | 55km/h | 30732m | 4.0m/s | -45.5°C | 0% | 0hPa | 0V | 00:00:00 | 00:00:00 | 00:00:00 | |
| ARGUS2 | 2026-09-05 12:53:22 | 27.71988 | -82.66362 | 287° | 69km/h | 30610m | 3.2m/s | -45.5°C | 0% | 0hPa | 0V | 00:00:00 | 00:00:00 | 00:00:00 | |
| ARGUS2 | 2026-09-05 12:53:01 | 27.72005 | -82.66048 | 242° | 27km/h | 30488m | 4.7m/s | -45.4°C | 0% | 0hPa | 0V | 00:00:00 | 00:00:00 | 00:00:00 | |
| ARGUS2 | 2026-09-05 12:52:41 | 27.72013 | -82.65759 | 272° | 80km/h | 30363m | 4.5m/s | -45.3°C | 0% | 0hPa | 0V | 00:00:00 | 00:00:00 | 00:00:00 | |
| ARGUS2 | 2026-09-05 12:52:19 | 27.72065 | -82.65456 | 237° | 42km/h | 30235m | 4.6m/s | -45.5°C | 0% | 0hPa | 0V | 00:00:00 | 00:00:00 | 00:00:00 | |
| ARGUS2 | 2026-09-05 12:51:56 | 27.72130 | -82.65100 | 233° | 60km/h | 30087m | 6.7m/s | -45.7°C | 0% | 0hPa | 0V | 00:00:00 | 00:00:00 | 00:00:00 | |
| ARGUS2 | 2026-09-05 12:51:36 | 27.72219 | -82.64765 | 275° | 66km/h | 29943m | 5.1m/s | -46.3°C | 0% | 0hPa | 0V | 00:00:00 | 00:00:00 | 00:00:00 | |
| ARGUS2 | 2026-09-05 12:51:13 | 27.72345 | -82.64382 | 248° | 68km/h | 29798m | 8.5m/s | -46.3°C | 0% | 0hPa | 0V | 00:00:00 | 00:00:00 | 00:00:00 | |
| ARGUS2 | 2026-09-05 12:50:52 | 27.72482 | -82.64008 | 236° | 62km/h | 29654m | 9.8m/s | -46.2°C | 0% | 0hPa | 0V | 00:00:00 | 00:00:00 | 00:00:00 | |
| ARGUS2 | 2026-09-05 12:50:32 | 27.72685 | -82.63646 | 250° | 69km/h | 29508m | 9.3m/s | -45.9°C | 0% | 0hPa | 0V | 00:00:00 | 00:00:00 | 00:00:00 | |
| ARGUS2 | 2026-09-05 12:50:11 | 27.72861 | -82.63321 | 236° | 77km/h | 29376m | 8.5m/s | -45.8°C | 0% | 0hPa | 0V | 00:00:00 | 00:00:00 | 00:00:00 | |
| ARGUS2 | 2026-09-05 12:49:51 | 27.73095 | -82.63044 | 220° | 73km/h | 29236m | 6.3m/s | -45.2°C | 0% | 0hPa | 0V | 00:00:00 | 00:00:00 | 00:00:00 | |
| ARGUS2 | 2026-09-05 12:49:31 | 27.73290 | -82.62788 | 232° | 58km/h | 29107m | 6.7m/s | -44.6°C | 0% | 0hPa | 0V | 00:00:00 | 00:00:00 | 00:00:00 | |
| ARGUS2 | 2026-09-05 12:49:10 | 27.73484 | -82.62572 | 243° | 42km/h | 28975m | 7.9m/s | -44.4°C | 0% | 0hPa | 0V | 00:00:00 | 00:00:00 | 00:00:00 | |
| ARGUS2 | 2026-09-05 12:48:49 | 27.73610 | -82.62359 | 272° | 37km/h | 28854m | 4.4m/s | -43.8°C | 0% | 0hPa | 0V | 00:00:00 | 00:00:00 | 00:00:00 | |
| ARGUS2 | 2026-09-05 12:48:29 | 27.73691 | -82.62166 | 216° | 55km/h | 28724m | -0.1m/s | -43.3°C | 0% | 0hPa | 0V | 00:00:00 | 00:00:00 | 00:00:00 | |
| ARGUS2 | 2026-09-05 12:48:07 | 27.73668 | -82.61933 | 302° | 47km/h | 28603m | 5.0m/s | -43.6°C | 0% | 0hPa | 0V | 00:00:00 | 00:00:00 | 00:00:00 | |
| ARGUS2 | 2026-09-05 12:47:47 | 27.73594 | -82.61721 | 246° | 31km/h | 28491m | 4.2m/s | -44.3°C | 0% | 0hPa | 0V | 00:00:00 | 00:00:00 | 00:00:00 | |
| ARGUS2 | 2026-09-05 12:47:26 | 27.73550 | -82.61460 | 253° | 42km/h | 28369m | 7.0m/s | -44.6°C | 0% | 0hPa | 0V | 00:00:00 | 00:00:00 | 00:00:00 | |
| ARGUS2 | 2026-09-05 12:47:07 | 27.73506 | -82.61171 | 290° | 86km/h | 28258m | 6.9m/s | -44.8°C | 0% | 0hPa | 0V | 00:00:00 | 00:00:00 | 00:00:00 | |
| ARGUS2 | 2026-09-05 12:46:45 | 27.73416 | -82.60768 | 271° | 51km/h | 28142m | 4.7m/s | -45.0°C | 0% | 0hPa | 0V | 00:00:00 | 00:00:00 | 00:00:00 | |
| ARGUS2 | 2026-09-05 12:46:22 | 27.73356 | -82.60266 | 259° | 75km/h | 28014m | 3.9m/s | -45.8°C | 0% | 0hPa | 0V | 00:00:00 | 00:00:00 | 00:00:00 | |
| ARGUS2 | 2026-09-05 12:46:01 | 27.73399 | -82.59800 | 242° | 82km/h | 27895m | 4.5m/s | -46.0°C | 0% | 0hPa | 0V | 00:00:00 | 00:00:00 | 00:00:00 | |
| ARGUS2 | 2026-09-05 12:45:41 | 27.73488 | -82.59360 | 264° | 69km/h | 27772m | 5.7m/s | -46.2°C | 0% | 0hPa | 0V | 00:00:00 | 00:00:00 | 00:00:00 | |
| ARGUS2 | 2026-09-05 12:45:20 | 27.73623 | -82.59007 | 255° | 66km/h | 27649m | 9.1m/s | -46.2°C | 0% | 0hPa | 0V | 00:00:00 | 00:00:00 | 00:00:00 | |
| ARGUS2 | 2026-09-05 12:44:59 | 27.73738 | -82.58660 | 237° | 84km/h | 27523m | 6.4m/s | -47.3°C | 0% | 0hPa | 0V | 00:00:00 | 00:00:00 | 00:00:00 | |
| ARGUS2 | 2026-09-05 12:44:39 | 27.73856 | -82.58239 | 273° | 68km/h | 27401m | 3.6m/s | -47.8°C | 0% | 0hPa | 0V | 00:00:00 | 00:00:00 | 00:00:00 | |
| ARGUS2 | 2026-09-05 12:44:18 | 27.73987 | -82.57846 | 236° | 68km/h | 27275m | 5.3m/s | -48.4°C | 0% | 0hPa | 0V | 00:00:00 | 00:00:00 | 00:00:00 | |
| ARGUS2 | 2026-09-05 12:43:56 | 27.74093 | -82.57420 | 252° | 69km/h | 27139m | 7.5m/s | -48.9°C | 0% | 0hPa | 0V | 00:00:00 | 00:00:00 | 00:00:00 | |
| ARGUS2 | 2026-09-05 12:43:35 | 27.74207 | -82.57072 | 234° | 77km/h | 27015m | 3.2m/s | -49.4°C | 0% | 0hPa | 0V | 00:00:00 | 00:00:00 | 00:00:00 | |
| ARGUS2 | 2026-09-05 12:43:15 | 27.74324 | -82.56718 | 247° | 68km/h | 26885m | 6.4m/s | -50.0°C | 0% | 0hPa | 0V | 00:00:00 | 00:00:00 | 00:00:00 | |
| ARGUS2 | 2026-09-05 12:42:54 | 27.74442 | -82.56436 | 227° | 49km/h | 26759m | 8.3m/s | -49.9°C | 0% | 0hPa | 0V | 00:00:00 | 00:00:00 | 00:00:00 | |
| ARGUS2 | 2026-09-05 12:42:34 | 27.74560 | -82.56187 | 264° | 47km/h | 26630m | 5.4m/s | -49.4°C | 0% | 0hPa | 0V | 00:00:00 | 00:00:00 | 00:00:00 | |
| ARGUS2 | 2026-09-05 12:42:13 | 27.74649 | -82.55963 | 244° | 33km/h | 26501m | 6.0m/s | -49.5°C | 0% | 0hPa | 0V | 00:00:00 | 00:00:00 | 00:00:00 | |
| ARGUS2 | 2026-09-05 12:41:50 | 27.74664 | -82.55714 | 271° | 47km/h | 26362m | 7.1m/s | -49.7°C | 0% | 0hPa | 0V | 00:00:00 | 00:00:00 | 00:00:00 | |
| ARGUS2 | 2026-09-05 12:41:30 | 27.74630 | -82.55460 | 275° | 31km/h | 26235m | 5.6m/s | -49.9°C | 0% | 0hPa | 0V | 00:00:00 | 00:00:00 | 00:00:00 | |
| ARGUS2 | 2026-09-05 12:41:10 | 27.74578 | -82.55147 | 276° | 49km/h | 26107m | 5.3m/s | -50.0°C | 0% | 0hPa | 0V | 00:00:00 | 00:00:00 | 00:00:00 | |
| ARGUS2 | 2026-09-05 12:40:50 | 27.74555 | -82.54776 | 259° | 73km/h | 25978m | 9.5m/s | -49.9°C | 0% | 0hPa | 0V | 00:00:00 | 00:00:00 | 00:00:00 | |
| ARGUS2 | 2026-09-05 12:40:29 | 27.74610 | -82.54343 | 256° | 78km/h | 25840m | 6.1m/s | -49.9°C | 0% | 0hPa | 0V | 00:00:00 | 00:00:00 | 00:00:00 | |
| ARGUS2 | 2026-09-05 12:40:09 | 27.74683 | -82.53939 | 271° | 58km/h | 25716m | 6.6m/s | -50.7°C | 0% | 0hPa | 0V | 00:00:00 | 00:00:00 | 00:00:00 | |
| ARGUS2 | 2026-09-05 12:39:47 | 27.74773 | -82.53580 | 249° | 62km/h | 25584m | 7.4m/s | -51.9°C | 0% | 0hPa | 0V | 00:00:00 | 00:00:00 | 00:00:00 | |
| ARGUS2 | 2026-09-05 12:39:27 | 27.74884 | -82.53285 | 227° | 44km/h | 25458m | 8.3m/s | -52.2°C | 0% | 0hPa | 0V | 00:00:00 | 00:00:00 | 00:00:00 | |
| ARGUS2 | 2026-09-05 12:39:07 | 27.74949 | -82.53080 | 280° | 22km/h | 25328m | 7.9m/s | -52.6°C | 0% | 0hPa | 0V | 00:00:00 | 00:00:00 | 00:00:00 | |
| ARGUS2 | 2026-09-05 12:38:46 | 27.74940 | -82.52927 | 283° | 27km/h | 25204m | 7.8m/s | -53.2°C | 0% | 0hPa | 0V | 00:00:00 | 00:00:00 | 00:00:00 | |
| ARGUS2 | 2026-09-05 12:38:26 | 27.74921 | -82.52719 | 264° | 26km/h | 25073m | 8.2m/s | -53.0°C | 0% | 0hPa | 0V | 00:00:00 | 00:00:00 | 00:00:00 | |
| ARGUS2 | 2026-09-05 12:38:05 | 27.74949 | -82.52457 | 264° | 53km/h | 24952m | 5.4m/s | -52.8°C | 0% | 0hPa | 0V | 00:00:00 | 00:00:00 | 00:00:00 | |
| ARGUS2 | 2026-09-05 12:37:45 | 27.74979 | -82.52178 | 282° | 60km/h | 24831m | 4.6m/s | -52.8°C | 0% | 0hPa | 0V | 00:00:00 | 00:00:00 | 00:00:00 | |
| ARGUS2 | 2026-09-05 12:37:24 | 27.74963 | -82.51962 | 287° | 35km/h | 24717m | 7.1m/s | -53.1°C | 0% | 0hPa | 0V | 00:00:00 | 00:00:00 | 00:00:00 | |
| ARGUS2 | 2026-09-05 12:37:04 | 27.74941 | -82.51744 | 288° | 42km/h | 24602m | 6.3m/s | -54.0°C | 0% | 0hPa | 0V | 00:00:00 | 00:00:00 | 00:00:00 | |
| ARGUS2 | 2026-09-05 12:36:43 | 27.74876 | -82.51508 | 268° | 40km/h | 24494m | 5.3m/s | -54.4°C | 0% | 0hPa | 0V | 00:00:00 | 00:00:00 | 00:00:00 | |
| ARGUS2 | 2026-09-05 12:36:22 | 27.74829 | -82.51263 | 279° | 33km/h | 24393m | 4.8m/s | -54.8°C | 0% | 0hPa | 0V | 00:00:00 | 00:00:00 | 00:00:00 | |
| ARGUS2 | 2026-09-05 12:36:01 | 27.74732 | -82.51043 | 310° | 47km/h | 24284m | 5.8m/s | -55.3°C | 0% | 0hPa | 0V | 00:00:00 | 00:00:00 | 00:00:00 | |
| ARGUS2 | 2026-09-05 12:35:41 | 27.74598 | -82.50808 | 307° | 66km/h | 24179m | 4.8m/s | -55.8°C | 0% | 0hPa | 0V | 00:00:00 | 00:00:00 | 00:00:00 | |
| ARGUS2 | 2026-09-05 12:35:21 | 27.74501 | -82.50513 | 289° | 60km/h | 24069m | 5.6m/s | -56.4°C | 0% | 0hPa | 0V | 00:00:00 | 00:00:00 | 00:00:00 | |
| ARGUS2 | 2026-09-05 12:35:00 | 27.74444 | -82.50210 | 296° | 60km/h | 23963m | 6.1m/s | -57.1°C | 0% | 0hPa | 0V | 00:00:00 | 00:00:00 | 00:00:00 | |
| ARGUS2 | 2026-09-05 12:34:39 | 27.74390 | -82.49973 | 294° | 33km/h | 23847m | 6.5m/s | -57.4°C | 0% | 0hPa | 0V | 00:00:00 | 00:00:00 | 00:00:00 | |
| ARGUS2 | 2026-09-05 12:34:19 | 27.74344 | -82.49802 | 290° | 37km/h | 23734m | 6.6m/s | -57.3°C | 0% | 0hPa | 0V | 00:00:00 | 00:00:00 | 00:00:00 | |
| ARGUS2 | 2026-09-05 12:33:58 | 27.74286 | -82.49583 | 251° | 38km/h | 23611m | 5.8m/s | -57.3°C | 0% | 0hPa | 0V | 00:00:00 | 00:00:00 | 00:00:00 | |
| ARGUS2 | 2026-09-05 12:33:38 | 27.74217 | -82.49364 | 288° | 47km/h | 23493m | 7.0m/s | -57.5°C | 0% | 0hPa | 0V | 00:00:00 | 00:00:00 | 00:00:00 | |
| ARGUS2 | 2026-09-05 12:33:18 | 27.74151 | -82.49140 | 286° | 44km/h | 23369m | 5.4m/s | -57.2°C | 0% | 0hPa | 0V | 00:00:00 | 00:00:00 | 00:00:00 | |
| ARGUS2 | 2026-09-05 12:32:58 | 27.74138 | -82.48914 | 233° | 37km/h | 23255m | 5.7m/s | -57.2°C | 0% | 0hPa | 0V | 00:00:00 | 00:00:00 | 00:00:00 | |
| ARGUS2 | 2026-09-05 12:32:37 | 27.74139 | -82.48707 | 268° | 35km/h | 23139m | 5.2m/s | -57.0°C | 0% | 0hPa | 0V | 00:00:00 | 00:00:00 | 00:00:00 | |
| ARGUS2 | 2026-09-05 12:32:16 | 27.74123 | -82.48507 | 250° | 46km/h | 23030m | 6.0m/s | -56.2°C | 0% | 0hPa | 0V | 00:00:00 | 00:00:00 | 00:00:00 | |
| ARGUS2 | 2026-09-05 12:31:56 | 27.74104 | -82.48262 | 273° | 57km/h | 22920m | 5.3m/s | -55.8°C | 0% | 0hPa | 0V | 00:00:00 | 00:00:00 | 00:00:00 | |
| ARGUS2 | 2026-09-05 12:31:34 | 27.74076 | -82.47960 | 266° | 51km/h | 22808m | 6.0m/s | -56.3°C | 0% | 0hPa | 0V | 00:00:00 | 00:00:00 | 00:00:00 | |
| ARGUS2 | 2026-09-05 12:31:14 | 27.74080 | -82.47664 | 261° | 58km/h | 22708m | 5.6m/s | -56.5°C | 0% | 0hPa | 0V | 00:00:00 | 00:00:00 | 00:00:00 | |
| ARGUS2 | 2026-09-05 12:30:54 | 27.74142 | -82.47398 | 241° | 38km/h | 22598m | 5.2m/s | -56.4°C | 0% | 0hPa | 0V | 00:00:00 | 00:00:00 | 00:00:00 | |
| ARGUS2 | 2026-09-05 12:30:33 | 27.74222 | -82.47172 | 250° | 38km/h | 22495m | 5.8m/s | -56.0°C | 0% | 0hPa | 0V | 00:00:00 | 00:00:00 | 00:00:00 | |
| ARGUS2 | 2026-09-05 12:30:13 | 27.74323 | -82.46915 | 248° | 60km/h | 22386m | 4.2m/s | -55.9°C | 0% | 0hPa | 0V | 00:00:00 | 00:00:00 | 00:00:00 | |
| ARGUS2 | 2026-09-05 12:29:52 | 27.74435 | -82.46645 | 256° | 71km/h | 22277m | 5.4m/s | -55.9°C | 0% | 0hPa | 0V | 00:00:00 | 00:00:00 | 00:00:00 | |
| ARGUS2 | 2026-09-05 12:29:32 | 27.74574 | -82.46390 | 247° | 55km/h | 22166m | 4.7m/s | -55.9°C | 0% | 0hPa | 0V | 00:00:00 | 00:00:00 | 00:00:00 | |
| ARGUS2 | 2026-09-05 12:29:11 | 27.74685 | -82.46190 | 238° | 37km/h | 22052m | 6.6m/s | -55.7°C | 0% | 0hPa | 0V | 00:00:00 | 00:00:00 | 00:00:00 | |
| ARGUS2 | 2026-09-05 12:28:51 | 27.74755 | -82.46006 | 257° | 31km/h | 21937m | 5.3m/s | -55.4°C | 0% | 0hPa | 0V | 00:00:00 | 00:00:00 | 00:00:00 | |
| ARGUS2 | 2026-09-05 12:28:30 | 27.74817 | -82.45817 | 247° | 38km/h | 21825m | 5.9m/s | -55.5°C | 0% | 0hPa | 0V | 00:00:00 | 00:00:00 | 00:00:00 | |
| ARGUS2 | 2026-09-05 12:28:10 | 27.74908 | -82.45656 | 211° | 22km/h | 21708m | 5.2m/s | -55.5°C | 0% | 0hPa | 0V | 00:00:00 | 00:00:00 | 00:00:00 | |
| ARGUS2 | 2026-09-05 12:27:49 | 27.74969 | -82.45514 | 295° | 15km/h | 21600m | 4.4m/s | -56.2°C | 0% | 0hPa | 0V | 00:00:00 | 00:00:00 | 00:00:00 | |
| ARGUS2 | 2026-09-05 12:27:29 | 27.74955 | -82.45347 | 288° | 42km/h | 21490m | 4.7m/s | -55.9°C | 0% | 0hPa | 0V | 00:00:00 | 00:00:00 | 00:00:00 | |
| ARGUS2 | 2026-09-05 12:27:09 | 27.74935 | -82.45149 | 270° | 38km/h | 21388m | 6.0m/s | -55.5°C | 0% | 0hPa | 0V | 00:00:00 | 00:00:00 | 00:00:00 | |
| ARGUS2 | 2026-09-05 12:26:48 | 27.74920 | -82.44921 | 273° | 31km/h | 21281m | 4.8m/s | -55.4°C | 0% | 0hPa | 0V | 00:00:00 | 00:00:00 | 00:00:00 | |
| ARGUS2 | 2026-09-05 12:26:27 | 27.74910 | -82.44708 | 285° | 47km/h | 21181m | 5.2m/s | -55.8°C | 0% | 0hPa | 0V | 00:00:00 | 00:00:00 | 00:00:00 | |
| ARGUS2 | 2026-09-05 12:26:07 | 27.74862 | -82.44512 | 285° | 37km/h | 21074m | 5.6m/s | -56.1°C | 0% | 0hPa | 0V | 00:00:00 | 00:00:00 | 00:00:00 | |
| ARGUS2 | 2026-09-05 12:25:46 | 27.74849 | -82.44325 | 276° | 29km/h | 20970m | 6.2m/s | -56.2°C | 0% | 0hPa | 0V | 00:00:00 | 00:00:00 | 00:00:00 | |
| ARGUS2 | 2026-09-05 12:25:25 | 27.74846 | -82.44177 | 277° | 24km/h | 20868m | 5.8m/s | -56.6°C | 0% | 0hPa | 0V | 00:00:00 | 00:00:00 | 00:00:00 | |
| ARGUS2 | 2026-09-05 12:25:05 | 27.74825 | -82.44052 | 302° | 31km/h | 20754m | 5.6m/s | -56.7°C | 0% | 0hPa | 0V | 00:00:00 | 00:00:00 | 00:00:00 | |
| ARGUS2 | 2026-09-05 12:24:44 | 27.74791 | -82.43906 | 269° | 22km/h | 20641m | 5.8m/s | -57.5°C | 0% | 0hPa | 0V | 00:00:00 | 00:00:00 | 00:00:00 | |
| ARGUS2 | 2026-09-05 12:24:23 | 27.74772 | -82.43747 | 310° | 29km/h | 20526m | 5.4m/s | -58.1°C | 0% | 0hPa | 0V | 00:00:00 | 00:00:00 | 00:00:00 | |
| ARGUS2 | 2026-09-05 12:24:03 | 27.74726 | -82.43600 | 301° | 37km/h | 20416m | 6.4m/s | -58.3°C | 0% | 0hPa | 0V | 00:00:00 | 00:00:00 | 00:00:00 | |
| ARGUS2 | 2026-09-05 12:23:43 | 27.74627 | -82.43405 | 298° | 33km/h | 20301m | 4.5m/s | -58.1°C | 0% | 0hPa | 0V | 00:00:00 | 00:00:00 | 00:00:00 | |
| ARGUS2 | 2026-09-05 12:23:22 | 27.74570 | -82.43169 | 279° | 55km/h | 20194m | 6.6m/s | -58.8°C | 0% | 0hPa | 0V | 00:00:00 | 00:00:00 | 00:00:00 | |
| ARGUS2 | 2026-09-05 12:22:41 | 27.74517 | -82.42845 | 291° | 18km/h | 19987m | 4.0m/s | -60.2°C | 0% | 0hPa | 0V | 00:00:00 | 00:00:00 | 00:00:00 | |
| ARGUS2 | 2026-09-05 12:22:21 | 27.74494 | -82.42718 | 259° | 27km/h | 19890m | 5.2m/s | -60.4°C | 0% | 0hPa | 0V | 00:00:00 | 00:00:00 | 00:00:00 | |
| ARGUS2 | 2026-09-05 12:22:01 | 27.74503 | -82.42545 | 256° | 38km/h | 19800m | 4.3m/s | -61.3°C | 0% | 0hPa | 0V | 00:00:00 | 00:00:00 | 00:00:00 | |
| ARGUS2 | 2026-09-05 12:21:40 | 27.74569 | -82.42347 | 231° | 35km/h | 19700m | 4.8m/s | -62.3°C | 0% | 0hPa | 0V | 00:00:00 | 00:00:00 | 00:00:00 | |
| ARGUS2 | 2026-09-05 12:21:19 | 27.74646 | -82.42227 | 270° | 20km/h | 19602m | 3.5m/s | -62.9°C | 0% | 0hPa | 0V | 00:00:00 | 00:00:00 | 00:00:00 | |
| ARGUS2 | 2026-09-05 12:20:58 | 27.74688 | -82.42168 | 192° | 9km/h | 19504m | 5.4m/s | -63.6°C | 0% | 0hPa | 0V | 00:00:00 | 00:00:00 | 00:00:00 | |
| ARGUS2 | 2026-09-05 12:20:37 | 27.74694 | -82.42114 | 276° | 29km/h | 19401m | 4.7m/s | -63.1°C | 0% | 0hPa | 0V | 00:00:00 | 00:00:00 | 00:00:00 | |
| ARGUS2 | 2026-09-05 12:20:17 | 27.74708 | -82.42017 | 236° | 26km/h | 19299m | 5.3m/s | -62.3°C | 0% | 0hPa | 0V | 00:00:00 | 00:00:00 | 00:00:00 | |
| ARGUS2 | 2026-09-05 12:19:57 | 27.74754 | -82.41904 | 236° | 37km/h | 19191m | 6.2m/s | -62.8°C | 0% | 0hPa | 0V | 00:00:00 | 00:00:00 | 00:00:00 | |
| ARGUS2 | 2026-09-05 12:19:36 | 27.74804 | -82.41810 | 275° | 20km/h | 19091m | 4.5m/s | -64.5°C | 0% | 0hPa | 0V | 00:00:00 | 00:00:00 | 00:00:00 | |
| ARGUS2 | 2026-09-05 12:19:15 | 27.74796 | -82.41749 | 319° | 7km/h | 18990m | 4.1m/s | -64.6°C | 0% | 0hPa | 0V | 00:00:00 | 00:00:00 | 00:00:00 | |
| ARGUS2 | 2026-09-05 12:18:35 | 27.74686 | -82.41586 | 271° | 29km/h | 18803m | 4.9m/s | -64.1°C | 0% | 0hPa | 0V | 00:00:00 | 00:00:00 | 00:00:00 | |
| ARGUS2 | 2026-09-05 12:18:14 | 27.74658 | -82.41430 | 267° | 33km/h | 18720m | 4.8m/s | -64.4°C | 0% | 0hPa | 0V | 00:00:00 | 00:00:00 | 00:00:00 | |
| ARGUS2 | 2026-09-05 12:17:54 | 27.74666 | -82.41273 | 281° | 24km/h | 18629m | 3.0m/s | -65.0°C | 0% | 0hPa | 0V | 00:00:00 | 00:00:00 | 00:00:00 | |
| ARGUS2 | 2026-09-05 12:17:33 | 27.74725 | -82.41084 | 245° | 44km/h | 18543m | 3.9m/s | -66.3°C | 0% | 0hPa | 0V | 00:00:00 | 00:00:00 | 00:00:00 | |
| ARGUS2 | 2026-09-05 12:17:13 | 27.74851 | -82.40905 | 218° | 27km/h | 18450m | 4.0m/s | -67.7°C | 0% | 0hPa | 0V | 00:00:00 | 00:00:00 | 00:00:00 | |
| ARGUS2 | 2026-09-05 12:16:53 | 27.74966 | -82.40819 | 191° | 26km/h | 18356m | 4.2m/s | -68.1°C | 0% | 0hPa | 0V | 00:00:00 | 00:00:00 | 00:00:00 | |
| ARGUS2 | 2026-09-05 12:16:32 | 27.75042 | -82.40791 | 280° | 4km/h | 18256m | 6.1m/s | -69.4°C | 0% | 0hPa | 0V | 00:00:00 | 00:00:00 | 00:00:00 | |
| ARGUS2 | 2026-09-05 12:16:11 | 27.75018 | -82.40697 | 284° | 22km/h | 18157m | 5.8m/s | -69.6°C | 0% | 0hPa | 0V | 00:00:00 | 00:00:00 | 00:00:00 | |
| ARGUS2 | 2026-09-05 12:15:51 | 27.74986 | -82.40532 | 280° | 22km/h | 18056m | 4.6m/s | -69.7°C | 0% | 0hPa | 0V | 00:00:00 | 00:00:00 | 00:00:00 | |
| ARGUS2 | 2026-09-05 12:15:30 | 27.75004 | -82.40335 | 263° | 44km/h | 17955m | 3.9m/s | -69.3°C | 0% | 0hPa | 0V | 00:00:00 | 00:00:00 | 00:00:00 | |
| ARGUS2 | 2026-09-05 12:15:09 | 27.75026 | -82.40126 | 257° | 37km/h | 17862m | 4.5m/s | -68.8°C | 0% | 0hPa | 0V | 00:00:00 | 00:00:00 | 00:00:00 | |
| ARGUS2 | 2026-09-05 12:14:48 | 27.75081 | -82.39890 | 264° | 47km/h | 17768m | 2.9m/s | -68.7°C | 0% | 0hPa | 0V | 00:00:00 | 00:00:00 | 00:00:00 | |
| ARGUS2 | 2026-09-05 12:14:28 | 27.75215 | -82.39649 | 232° | 49km/h | 17677m | 3.8m/s | -70.4°C | 0% | 0hPa | 0V | 00:00:00 | 00:00:00 | 00:00:00 | |
| ARGUS2 | 2026-09-05 12:14:07 | 27.75334 | -82.39477 | 221° | 27km/h | 17583m | 5.0m/s | -70.3°C | 0% | 0hPa | 0V | 00:00:00 | 00:00:00 | 00:00:00 | |
| ARGUS2 | 2026-09-05 12:13:47 | 27.75453 | -82.39376 | 231° | 29km/h | 17492m | 4.1m/s | -69.8°C | 0% | 0hPa | 0V | 00:00:00 | 00:00:00 | 00:00:00 | |
| ARGUS2 | 2026-09-05 12:13:26 | 27.75566 | -82.39292 | 207° | 15km/h | 17398m | 6.2m/s | -70.2°C | 0% | 0hPa | 0V | 00:00:00 | 00:00:00 | 00:00:00 | |
| ARGUS2 | 2026-09-05 12:13:06 | 27.75613 | -82.39264 | 214° | 7km/h | 17307m | 4.2m/s | -70.5°C | 0% | 0hPa | 0V | 00:00:00 | 00:00:00 | 00:00:00 | |
| ARGUS2 | 2026-09-05 12:12:26 | 27.75715 | -82.39100 | 249° | 29km/h | 17114m | 5.6m/s | -72.3°C | 0% | 0hPa | 0V | 00:00:00 | 00:00:00 | 00:00:00 | |
| ARGUS2 | 2026-09-05 12:12:05 | 27.75774 | -82.38943 | 252° | 27km/h | 17012m | 3.9m/s | -72.4°C | 0% | 0hPa | 0V | 00:00:00 | 00:00:00 | 00:00:00 | |
| ARGUS2 | 2026-09-05 12:11:44 | 27.75864 | -82.38760 | 232° | 42km/h | 16913m | 4.9m/s | -72.5°C | 0% | 0hPa | 0V | 00:00:00 | 00:00:00 | 00:00:00 | |
| ARGUS2 | 2026-09-05 12:11:03 | 27.76092 | -82.38403 | 226° | 49km/h | 16724m | 4.0m/s | -71.3°C | 0% | 0hPa | 0V | 00:00:00 | 00:00:00 | 00:00:00 | |
| ARGUS2 | 2026-09-05 12:10:43 | 27.76236 | -82.38264 | 214° | 33km/h | 16630m | 4.9m/s | -70.9°C | 0% | 0hPa | 0V | 00:00:00 | 00:00:00 | 00:00:00 | |
| ARGUS2 | 2026-09-05 12:10:21 | 27.76374 | -82.38145 | 228° | 31km/h | 16538m | 5.2m/s | -70.3°C | 0% | 0hPa | 0V | 00:00:00 | 00:00:00 | 00:00:00 | |
| ARGUS2 | 2026-09-05 12:10:01 | 27.76490 | -82.38025 | 234° | 26km/h | 16450m | 4.7m/s | -69.5°C | 0% | 0hPa | 0V | 00:00:00 | 00:00:00 | 00:00:00 | |
| ARGUS2 | 2026-09-05 12:09:41 | 27.76602 | -82.37903 | 230° | 31km/h | 16361m | 4.9m/s | -69.2°C | 0% | 0hPa | 0V | 00:00:00 | 00:00:00 | 00:00:00 | |
| ARGUS2 | 2026-09-05 12:09:20 | 27.76706 | -82.37806 | 214° | 29km/h | 16274m | 3.5m/s | -68.7°C | 0% | 0hPa | 0V | 00:00:00 | 00:00:00 | 00:00:00 | |
| ARGUS2 | 2026-09-05 12:09:00 | 27.76798 | -82.37739 | 214° | 26km/h | 16180m | 5.0m/s | -68.0°C | 0% | 0hPa | 0V | 00:00:00 | 00:00:00 | 00:00:00 | |
| ARGUS2 | 2026-09-05 12:08:39 | 27.76864 | -82.37683 | 184° | 18km/h | 16083m | 5.1m/s | -67.7°C | 0% | 0hPa | 0V | 00:00:00 | 00:00:00 | 00:00:00 | |
| ARGUS2 | 2026-09-05 12:08:18 | 27.76898 | -82.37627 | 259° | 18km/h | 15991m | 3.6m/s | -68.8°C | 0% | 0hPa | 0V | 00:00:00 | 00:00:00 | 00:00:00 | |
| ARGUS2 | 2026-09-05 12:07:58 | 27.76908 | -82.37593 | 215° | 11km/h | 15902m | 4.2m/s | -68.6°C | 0% | 0hPa | 0V | 00:00:00 | 00:00:00 | 00:00:00 | |
| ARGUS2 | 2026-09-05 12:07:37 | 27.76972 | -82.37516 | 240° | 18km/h | 15806m | 5.9m/s | -69.0°C | 0% | 0hPa | 0V | 00:00:00 | 00:00:00 | 00:00:00 | |
| ARGUS2 | 2026-09-05 12:07:18 | 27.77027 | -82.37472 | 329° | 5km/h | 15713m | 4.3m/s | -68.4°C | 0% | 0hPa | 0V | 00:00:00 | 00:00:00 | 00:00:00 | |
| ARGUS2 | 2026-09-05 12:06:57 | 27.77041 | -82.37435 | 306° | 9km/h | 15618m | 5.3m/s | -67.7°C | 0% | 0hPa | 0V | 00:00:00 | 00:00:00 | 00:00:00 | |
| ARGUS2 | 2026-09-05 12:06:36 | 27.77022 | -82.37408 | 8° | 7km/h | 15528m | 3.3m/s | -67.2°C | 0% | 0hPa | 0V | 00:00:00 | 00:00:00 | 00:00:00 | |
| ARGUS2 | 2026-09-05 12:06:16 | 27.76965 | -82.37350 | 296° | 44km/h | 15432m | 5.8m/s | -66.8°C | 0% | 0hPa | 0V | 00:00:00 | 00:00:00 | 00:00:00 | |
| ARGUS2 | 2026-09-05 12:05:55 | 27.76856 | -82.37221 | 316° | 33km/h | 15327m | 5.1m/s | -67.7°C | 0% | 0hPa | 0V | 00:00:00 | 00:00:00 | 00:00:00 | |
| ARGUS2 | 2026-09-05 12:05:35 | 27.76740 | -82.37034 | 315° | 47km/h | 15242m | 4.2m/s | -68.1°C | 0% | 0hPa | 0V | 00:00:00 | 00:00:00 | 00:00:00 | |
| ARGUS2 | 2026-09-05 12:05:13 | 27.76618 | -82.36892 | 318° | 31km/h | 15147m | 5.5m/s | -67.8°C | 0% | 0hPa | 0V | 00:00:00 | 00:00:00 | 00:00:00 | |
| ARGUS2 | 2026-09-05 12:04:53 | 27.76497 | -82.36784 | 335° | 37km/h | 15060m | 3.8m/s | -67.6°C | 0% | 0hPa | 0V | 00:00:00 | 00:00:00 | 00:00:00 | |
| ARGUS2 | 2026-09-05 12:04:32 | 27.76347 | -82.36700 | 339° | 31km/h | 14970m | 4.5m/s | -67.4°C | 0% | 0hPa | 0V | 00:00:00 | 00:00:00 | 00:00:00 | |
| ARGUS2 | 2026-09-05 12:04:12 | 27.76210 | -82.36605 | 326° | 31km/h | 14882m | 5.4m/s | -67.0°C | 0% | 0hPa | 0V | 00:00:00 | 00:00:00 | 00:00:00 | |
| ARGUS2 | 2026-09-05 12:03:52 | 27.76060 | -82.36490 | 322° | 33km/h | 14787m | 3.9m/s | -66.4°C | 0% | 0hPa | 0V | 00:00:00 | 00:00:00 | 00:00:00 | |
| ARGUS2 | 2026-09-05 12:03:31 | 27.75938 | -82.36382 | 313° | 35km/h | 14701m | 3.4m/s | -65.8°C | 0% | 0hPa | 0V | 00:00:00 | 00:00:00 | 00:00:00 | |
| ARGUS2 | 2026-09-05 12:03:11 | 27.75834 | -82.36256 | 319° | 26km/h | 14608m | 5.5m/s | -65.1°C | 0% | 0hPa | 0V | 00:00:00 | 00:00:00 | 00:00:00 | |
| ARGUS2 | 2026-09-05 12:02:50 | 27.75734 | -82.36136 | 312° | 33km/h | 14522m | 3.9m/s | -64.7°C | 0% | 0hPa | 0V | 00:00:00 | 00:00:00 | 00:00:00 | |
| ARGUS2 | 2026-09-05 12:02:30 | 27.75637 | -82.35998 | 313° | 37km/h | 14434m | 3.7m/s | -64.5°C | 0% | 0hPa | 0V | 00:00:00 | 00:00:00 | 00:00:00 | |
| ARGUS2 | 2026-09-05 12:02:09 | 27.75548 | -82.35841 | 315° | 29km/h | 14353m | 4.4m/s | -64.4°C | 0% | 0hPa | 0V | 00:00:00 | 00:00:00 | 00:00:00 | |
| ARGUS2 | 2026-09-05 12:01:48 | 27.75466 | -82.35674 | 307° | 35km/h | 14252m | 4.7m/s | -63.7°C | 0% | 0hPa | 0V | 00:00:00 | 00:00:00 | 00:00:00 | |
| ARGUS2 | 2026-09-05 12:01:28 | 27.75414 | -82.35542 | 294° | 31km/h | 14160m | 4.6m/s | -63.1°C | 0% | 0hPa | 0V | 00:00:00 | 00:00:00 | 00:00:00 | |
| ARGUS2 | 2026-09-05 12:01:08 | 27.75379 | -82.35406 | 271° | 29km/h | 14074m | 4.9m/s | -62.4°C | 0% | 0hPa | 0V | 00:00:00 | 00:00:00 | 00:00:00 | |
| ARGUS2 | 2026-09-05 12:00:48 | 27.75359 | -82.35277 | 286° | 22km/h | 13990m | 5.2m/s | -61.7°C | 0% | 0hPa | 0V | 00:00:00 | 00:00:00 | 00:00:00 | |
| ARGUS2 | 2026-09-05 12:00:27 | 27.75333 | -82.35159 | 295° | 29km/h | 13903m | 3.9m/s | -61.2°C | 0% | 0hPa | 0V | 00:00:00 | 00:00:00 | 00:00:00 | |
| ARGUS2 | 2026-09-05 12:00:06 | 27.75330 | -82.35052 | 281° | 13km/h | 13822m | 3.2m/s | -60.6°C | 0% | 0hPa | 0V | 00:00:00 | 00:00:00 | 00:00:00 | |
| ARGUS2 | 2026-09-05 11:59:46 | 27.75310 | -82.34941 | 306° | 29km/h | 13720m | 5.4m/s | -60.1°C | 0% | 0hPa | 0V | 00:00:00 | 00:00:00 | 00:00:00 | |
| ARGUS2 | 2026-09-05 11:59:24 | 27.75270 | -82.34917 | 349° | 7km/h | 13613m | 5.8m/s | -59.5°C | 0% | 0hPa | 0V | 00:00:00 | 00:00:00 | 00:00:00 | |
| ARGUS2 | 2026-09-05 11:59:04 | 27.75205 | -82.34917 | 15° | 24km/h | 13520m | 4.5m/s | -59.0°C | 0% | 0hPa | 0V | 00:00:00 | 00:00:00 | 00:00:00 | |
| ARGUS2 | 2026-09-05 11:58:44 | 27.75114 | -82.34953 | 13° | 31km/h | 13430m | 3.2m/s | -58.4°C | 0% | 0hPa | 0V | 00:00:00 | 00:00:00 | 00:00:00 | |
| ARGUS2 | 2026-09-05 11:58:23 | 27.75013 | -82.34997 | 24° | 22km/h | 13345m | 4.5m/s | -57.6°C | 0% | 0hPa | 0V | 00:00:00 | 00:00:00 | 00:00:00 | |
| ARGUS2 | 2026-09-05 11:58:03 | 27.74895 | -82.35052 | 12° | 18km/h | 13255m | 3.9m/s | -56.8°C | 0% | 0hPa | 0V | 00:00:00 | 00:00:00 | 00:00:00 | |
| ARGUS2 | 2026-09-05 11:57:42 | 27.74785 | -82.35108 | 18° | 20km/h | 13164m | 3.5m/s | -56.0°C | 0% | 0hPa | 0V | 00:00:00 | 00:00:00 | 00:00:00 | |
| ARGUS2 | 2026-09-05 11:57:22 | 27.74668 | -82.35177 | 30° | 29km/h | 13072m | 5.2m/s | -55.2°C | 0% | 0hPa | 0V | 00:00:00 | 00:00:00 | 00:00:00 | |
| ARGUS2 | 2026-09-05 11:57:01 | 27.74545 | -82.35242 | 30° | 24km/h | 12983m | 5.0m/s | -54.5°C | 0% | 0hPa | 0V | 00:00:00 | 00:00:00 | 00:00:00 | |
| ARGUS2 | 2026-09-05 11:56:40 | 27.74403 | -82.35312 | 26° | 35km/h | 12891m | 5.5m/s | -53.9°C | 0% | 0hPa | 0V | 00:00:00 | 00:00:00 | 00:00:00 | |
| ARGUS2 | 2026-09-05 11:56:20 | 27.74262 | -82.35412 | 37° | 37km/h | 12800m | 5.4m/s | -54.0°C | 0% | 0hPa | 0V | 00:00:00 | 00:00:00 | 00:00:00 | |
| ARGUS2 | 2026-09-05 11:56:00 | 27.74147 | -82.35504 | 11° | 26km/h | 12710m | 4.6m/s | -53.3°C | 0% | 0hPa | 0V | 00:00:00 | 00:00:00 | 00:00:00 | |
| ARGUS2 | 2026-09-05 11:55:39 | 27.74064 | -82.35560 | 66° | 24km/h | 12613m | 5.3m/s | -52.6°C | 0% | 0hPa | 0V | 00:00:00 | 00:00:00 | 00:00:00 | |
| ARGUS2 | 2026-09-05 11:55:19 | 27.73980 | -82.35600 | 4° | 29km/h | 12512m | 4.8m/s | -51.7°C | 0% | 0hPa | 0V | 00:00:00 | 00:00:00 | 00:00:00 | |
| ARGUS2 | 2026-09-05 11:54:58 | 27.73880 | -82.35621 | 357° | 15km/h | 12423m | 3.4m/s | -51.1°C | 0% | 0hPa | 0V | 00:00:00 | 00:00:00 | 00:00:00 | |
| ARGUS2 | 2026-09-05 11:54:38 | 27.73780 | -82.35630 | 336° | 16km/h | 12324m | 4.2m/s | -50.3°C | 0% | 0hPa | 0V | 00:00:00 | 00:00:00 | 00:00:00 | |
| ARGUS2 | 2026-09-05 11:54:17 | 27.73706 | -82.35610 | 350° | 20km/h | 12232m | 4.4m/s | -49.6°C | 0% | 0hPa | 0V | 00:00:00 | 00:00:00 | 00:00:00 | |
| ARGUS2 | 2026-09-05 11:53:56 | 27.73636 | -82.35589 | 327° | 11km/h | 12146m | 4.6m/s | -48.8°C | 0% | 0hPa | 0V | 00:00:00 | 00:00:00 | 00:00:00 | |
| ARGUS2 | 2026-09-05 11:53:36 | 27.73578 | -82.35559 | 322° | 13km/h | 12062m | 4.6m/s | -48.1°C | 0% | 0hPa | 0V | 00:00:00 | 00:00:00 | 00:00:00 | |
| ARGUS2 | 2026-09-05 11:53:15 | 27.73532 | -82.35511 | 287° | 16km/h | 11981m | 4.5m/s | -47.5°C | 0% | 0hPa | 0V | 00:00:00 | 00:00:00 | 00:00:00 | |
| ARGUS2 | 2026-09-05 11:52:55 | 27.73485 | -82.35454 | 309° | 16km/h | 11885m | 6.1m/s | -46.9°C | 0% | 0hPa | 0V | 00:00:00 | 00:00:00 | 00:00:00 | |
| ARGUS2 | 2026-09-05 11:52:34 | 27.73443 | -82.35406 | 336° | 13km/h | 11788m | 4.0m/s | -46.0°C | 0% | 0hPa | 0V | 00:00:00 | 00:00:00 | 00:00:00 | |
| ARGUS2 | 2026-09-05 11:52:13 | 27.73400 | -82.35382 | 318° | 15km/h | 11692m | 5.5m/s | -45.4°C | 0% | 0hPa | 0V | 00:00:00 | 00:00:00 | 00:00:00 | |
| ARGUS2 | 2026-09-05 11:51:53 | 27.73353 | -82.35353 | 358° | 9km/h | 11606m | 4.9m/s | -44.8°C | 0% | 0hPa | 0V | 00:00:00 | 00:00:00 | 00:00:00 | |
| ARGUS2 | 2026-09-05 11:51:33 | 27.73308 | -82.35328 | 346° | 15km/h | 11516m | 4.4m/s | -44.3°C | 0% | 0hPa | 0V | 00:00:00 | 00:00:00 | 00:00:00 | |
| ARGUS2 | 2026-09-05 11:51:13 | 27.73261 | -82.35305 | 339° | 9km/h | 11435m | 3.7m/s | -43.8°C | 0% | 0hPa | 0V | 00:00:00 | 00:00:00 | 00:00:00 | |
| ARGUS2 | 2026-09-05 11:50:52 | 27.73199 | -82.35303 | 345° | 11km/h | 11348m | 4.5m/s | -43.2°C | 0% | 0hPa | 0V | 00:00:00 | 00:00:00 | 00:00:00 | |
| ARGUS2 | 2026-09-05 11:50:31 | 27.73128 | -82.35318 | 35° | 20km/h | 11258m | 5.3m/s | -42.6°C | 0% | 0hPa | 0V | 00:00:00 | 00:00:00 | 00:00:00 | |
| ARGUS2 | 2026-09-05 11:50:10 | 27.73059 | -82.35363 | 32° | 15km/h | 11161m | 4.7m/s | -41.8°C | 0% | 0hPa | 0V | 00:00:00 | 00:00:00 | 00:00:00 | |
| ARGUS2 | 2026-09-05 11:49:48 | 27.72980 | -82.35406 | 43° | 20km/h | 11055m | 3.9m/s | -41.2°C | 0% | 0hPa | 0V | 00:00:00 | 00:00:00 | 00:00:00 | |
| ARGUS2 | 2026-09-05 11:49:27 | 27.72901 | -82.35451 | 26° | 24km/h | 10964m | 3.5m/s | -40.5°C | 0% | 0hPa | 0V | 00:00:00 | 00:00:00 | 00:00:00 | |
| ARGUS2 | 2026-09-05 11:49:07 | 27.72834 | -82.35475 | 353° | 11km/h | 10872m | 5.3m/s | -39.7°C | 0% | 0hPa | 0V | 00:00:00 | 00:00:00 | 00:00:00 | |
| ARGUS2 | 2026-09-05 11:48:47 | 27.72773 | -82.35489 | 325° | 18km/h | 10769m | 4.4m/s | -39.0°C | 0% | 0hPa | 0V | 00:00:00 | 00:00:00 | 00:00:00 | |
| ARGUS2 | 2026-09-05 11:48:26 | 27.72724 | -82.35493 | 17° | 11km/h | 10673m | 5.1m/s | -38.1°C | 0% | 0hPa | 0V | 00:00:00 | 00:00:00 | 00:00:00 | |
| ARGUS2 | 2026-09-05 11:48:06 | 27.72685 | -82.35500 | 20° | 16km/h | 10561m | 3.7m/s | -37.0°C | 0% | 0hPa | 0V | 00:00:00 | 00:00:00 | 00:00:00 | |
| ARGUS2 | 2026-09-05 11:47:45 | 27.72642 | -82.35508 | 29° | 9km/h | 10467m | 4.6m/s | -36.1°C | 0% | 0hPa | 0V | 00:00:00 | 00:00:00 | 00:00:00 | |
| ARGUS2 | 2026-09-05 11:47:25 | 27.72599 | -82.35525 | 62° | 9km/h | 10360m | 5.3m/s | -35.3°C | 0% | 0hPa | 0V | 00:00:00 | 00:00:00 | 00:00:00 | |
| ARGUS2 | 2026-09-05 11:47:03 | 27.72569 | -82.35513 | 295° | 11km/h | 10244m | 5.7m/s | -34.2°C | 0% | 0hPa | 0V | 00:00:00 | 00:00:00 | 00:00:00 | |
| ARGUS2 | 2026-09-05 11:46:42 | 27.72533 | -82.35465 | 275° | 13km/h | 10139m | 4.6m/s | -33.3°C | 0% | 0hPa | 0V | 00:00:00 | 00:00:00 | 00:00:00 | |
| ARGUS2 | 2026-09-05 11:46:21 | 27.72501 | -82.35420 | 289° | 5km/h | 10045m | 4.7m/s | -32.5°C | 0% | 0hPa | 0V | 00:00:00 | 00:00:00 | 00:00:00 | |
| ARGUS2 | 2026-09-05 11:46:01 | 27.72473 | -82.35367 | 291° | 20km/h | 9947m | 4.9m/s | -31.6°C | 0% | 0hPa | 0V | 00:00:00 | 00:00:00 | 00:00:00 | |
| ARGUS2 | 2026-09-05 11:45:39 | 27.72448 | -82.35312 | 290° | 9km/h | 9845m | 4.0m/s | -30.8°C | 0% | 0hPa | 0V | 00:00:00 | 00:00:00 | 00:00:00 | |
| ARGUS2 | 2026-09-05 11:45:19 | 27.72443 | -82.35251 | 272° | 13km/h | 9742m | 5.8m/s | -29.9°C | 0% | 0hPa | 0V | 00:00:00 | 00:00:00 | 00:00:00 | |
| ARGUS2 | 2026-09-05 11:44:59 | 27.72427 | -82.35202 | 272° | 5km/h | 9649m | 3.8m/s | -29.2°C | 0% | 0hPa | 0V | 00:00:00 | 00:00:00 | 00:00:00 | |
| ARGUS2 | 2026-09-05 11:44:37 | 27.72399 | -82.35159 | 310° | 16km/h | 9560m | 3.9m/s | -28.3°C | 0% | 0hPa | 0V | 00:00:00 | 00:00:00 | 00:00:00 | |
| ARGUS2 | 2026-09-05 11:44:15 | 27.72364 | -82.35126 | 323° | 7km/h | 9472m | 3.9m/s | -27.6°C | 0% | 0hPa | 0V | 00:00:00 | 00:00:00 | 00:00:00 | |
| ARGUS2 | 2026-09-05 11:43:50 | 27.72319 | -82.35097 | 311° | 13km/h | 9366m | 4.1m/s | -26.8°C | 0% | 0hPa | 0V | 00:00:00 | 00:00:00 | 00:00:00 | |
| ARGUS2 | 2026-09-05 11:42:50 | 27.72230 | -82.35032 | 9° | 5km/h | 9114m | 4.2m/s | -25.6°C | 0% | 0hPa | 0V | 00:00:00 | 00:00:00 | 00:00:00 | |
| ARGUS2 | 2026-09-05 11:42:28 | 27.72186 | -82.35024 | 2° | 11km/h | 9034m | 4.8m/s | -25.1°C | 0% | 0hPa | 0V | 00:00:00 | 00:00:00 | 00:00:00 | |
| ARGUS2 | 2026-09-05 11:42:08 | 27.72145 | -82.35013 | 340° | 11km/h | 8959m | 3.5m/s | -24.6°C | 0% | 0hPa | 0V | 00:00:00 | 00:00:00 | 00:00:00 | |
| ARGUS2 | 2026-09-05 11:41:47 | 27.72097 | -82.35014 | 66° | 16km/h | 8874m | 4.4m/s | -24.1°C | 0% | 0hPa | 0V | 00:00:00 | 00:00:00 | 00:00:00 | |
| ARGUS2 | 2026-09-05 11:41:25 | 27.72054 | -82.35039 | 345° | 7km/h | 8786m | 3.5m/s | -23.5°C | 0% | 0hPa | 0V | 00:00:00 | 00:00:00 | 00:00:00 | |
| ARGUS2 | 2026-09-05 11:41:04 | 27.72008 | -82.35097 | 60° | 22km/h | 8706m | 3.9m/s | -22.9°C | 0% | 0hPa | 0V | 00:00:00 | 00:00:00 | 00:00:00 | |
| ARGUS2 | 2026-09-05 11:40:43 | 27.71980 | -82.35129 | 337° | 5km/h | 8612m | 4.3m/s | -22.5°C | 0% | 0hPa | 0V | 00:00:00 | 00:00:00 | 00:00:00 | |
| ARGUS2 | 2026-09-05 11:40:23 | 27.71959 | -82.35150 | 86° | 20km/h | 8527m | 3.4m/s | -22.2°C | 0% | 0hPa | 0V | 00:00:00 | 00:00:00 | 00:00:00 | |
| ARGUS2 | 2026-09-05 11:40:02 | 27.71932 | -82.35201 | 128° | 7km/h | 8432m | 4.3m/s | -21.7°C | 0% | 0hPa | 0V | 00:00:00 | 00:00:00 | 00:00:00 | |
| ARGUS2 | 2026-09-05 11:39:36 | 27.71934 | -82.35243 | 247° | 7km/h | 8328m | 5.2m/s | 0°C | 0% | 0hPa | 0V | 00:00:00 | 00:00:00 | 00:00:00 | |
| ARGUS2 | 2026-09-05 11:38:58 | 27.71941 | -82.35281 | 179° | 4km/h | 8147m | 3.9m/s | -19.3°C | 0% | 0hPa | 0V | 00:00:00 | 00:00:00 | 00:00:00 | |
| ARGUS2 | 2026-09-05 11:36:13 | 27.72077 | -82.35514 | 158° | 11km/h | 7459m | 4.5m/s | -14.9°C | 0% | 0hPa | 0V | 00:00:00 | 00:00:00 | 00:00:00 | |
| ARGUS2 | 2026-09-05 11:35:52 | 27.72118 | -82.35549 | 135° | 5km/h | 7372m | 5.2m/s | -14.3°C | 0% | 0hPa | 0V | 00:00:00 | 00:00:00 | 00:00:00 | |
| ARGUS2 | 2026-09-05 11:35:31 | 27.72156 | -82.35586 | 159° | 15km/h | 7286m | 3.5m/s | -13.7°C | 0% | 0hPa | 0V | 00:00:00 | 00:00:00 | 00:00:00 | |
| ARGUS2 | 2026-09-05 11:35:10 | 27.72197 | -82.35625 | 143° | 5km/h | 7200m | 4.8m/s | -13.2°C | 0% | 0hPa | 0V | 00:00:00 | 00:00:00 | 00:00:00 | |
| ARGUS2 | 2026-09-05 11:34:50 | 27.72245 | -82.35660 | 166° | 11km/h | 7091m | 6.7m/s | -12.6°C | 0% | 0hPa | 0V | 00:00:00 | 00:00:00 | 00:00:00 | |
| ARGUS2 | 2026-09-05 11:34:29 | 27.72295 | -82.35676 | 166° | 9km/h | 6989m | 4.5m/s | -12.2°C | 0% | 0hPa | 0V | 00:00:00 | 00:00:00 | 00:00:00 | |
| ARGUS2 | 2026-09-05 11:34:09 | 27.72338 | -82.35684 | 151° | 7km/h | 6890m | 4.8m/s | -11.9°C | 0% | 0hPa | 0V | 00:00:00 | 00:00:00 | 00:00:00 | |
| ARGUS2 | 2026-09-05 11:33:49 | 27.72377 | -82.35715 | 85° | 11km/h | 6802m | 4.6m/s | -11.2°C | 0% | 0hPa | 0V | 00:00:00 | 00:00:00 | 00:00:00 | |
| ARGUS2 | 2026-09-05 11:33:28 | 27.72392 | -82.35783 | 110° | 15km/h | 6721m | 4.3m/s | -10.9°C | 0% | 0hPa | 0V | 00:00:00 | 00:00:00 | 00:00:00 | |
| ARGUS2 | 2026-09-05 11:33:07 | 27.72413 | -82.35858 | 86° | 15km/h | 6625m | 2.8m/s | -10.2°C | 0% | 0hPa | 0V | 00:00:00 | 00:00:00 | 00:00:00 | |
| ARGUS2 | 2026-09-05 11:32:47 | 27.72419 | -82.35964 | 100° | 18km/h | 6529m | 4.9m/s | -9.6°C | 0% | 0hPa | 0V | 00:00:00 | 00:00:00 | 00:00:00 | |
| ARGUS2 | 2026-09-05 11:32:27 | 27.72428 | -82.36073 | 106° | 11km/h | 6445m | 3.1m/s | -9.3°C | 0% | 0hPa | 0V | 00:00:00 | 00:00:00 | 00:00:00 | |
| ARGUS2 | 2026-09-05 11:32:06 | 27.72443 | -82.36172 | 118° | 11km/h | 6370m | 2.8m/s | -8.9°C | 0% | 0hPa | 0V | 00:00:00 | 00:00:00 | 00:00:00 | |
| ARGUS2 | 2026-09-05 11:31:46 | 27.72458 | -82.36284 | 102° | 22km/h | 6288m | 4.9m/s | -8.5°C | 0% | 0hPa | 0V | 00:00:00 | 00:00:00 | 00:00:00 | |
| ARGUS2 | 2026-09-05 11:31:26 | 27.72479 | -82.36403 | 98° | 26km/h | 6198m | 5.6m/s | -7.8°C | 0% | 0hPa | 0V | 00:00:00 | 00:00:00 | 00:00:00 | |
| ARGUS2 | 2026-09-05 11:31:05 | 27.72469 | -82.36534 | 98° | 20km/h | 6095m | 4.6m/s | -7.1°C | 0% | 0hPa | 0V | 00:00:00 | 00:00:00 | 00:00:00 | |
| ARGUS2 | 2026-09-05 11:30:44 | 27.72454 | -82.36657 | 79° | 18km/h | 6013m | 5.0m/s | -6.6°C | 0% | 0hPa | 0V | 00:00:00 | 00:00:00 | 00:00:00 | |
| ARGUS2 | 2026-09-05 11:30:24 | 27.72435 | -82.36782 | 79° | 16km/h | 5932m | 4.6m/s | -6.1°C | 0% | 0hPa | 0V | 00:00:00 | 00:00:00 | 00:00:00 | |
| ARGUS2 | 2026-09-05 11:29:42 | 27.72389 | -82.37073 | 67° | 33km/h | 5774m | 4.1m/s | -5.3°C | 0% | 0hPa | 0V | 00:00:00 | 00:00:00 | 00:00:00 | |
| ARGUS2 | 2026-09-05 11:29:22 | 27.72386 | -82.37191 | 87° | 20km/h | 5682m | 4.5m/s | -5.0°C | 0% | 0hPa | 0V | 00:00:00 | 00:00:00 | 00:00:00 | |
| ARGUS2 | 2026-09-05 11:29:01 | 27.72360 | -82.37288 | 88° | 33km/h | 5594m | 5.2m/s | -4.8°C | 0% | 0hPa | 0V | 00:00:00 | 00:00:00 | 00:00:00 | |
| ARGUS2 | 2026-09-05 11:28:41 | 27.72338 | -82.37364 | 78° | 22km/h | 5478m | 5.4m/s | -4.0°C | 0% | 0hPa | 0V | 00:00:00 | 00:00:00 | 00:00:00 | |
| ARGUS2 | 2026-09-05 11:28:19 | 27.72290 | -82.37430 | 95° | 24km/h | 5383m | 2.9m/s | -3.6°C | 0% | 0hPa | 0V | 00:00:00 | 00:00:00 | 00:00:00 | |
| ARGUS2 | 2026-09-05 11:27:58 | 27.72265 | -82.37499 | 83° | 16km/h | 5294m | 3.1m/s | -3.0°C | 0% | 0hPa | 0V | 00:00:00 | 00:00:00 | 00:00:00 | |
| ARGUS2 | 2026-09-05 11:27:33 | 27.72228 | -82.37602 | 30° | 20km/h | 5177m | 7.5m/s | -2.5°C | 0% | 0hPa | 0V | 00:00:00 | 00:00:00 | 00:00:00 | |
| ARGUS2 | 2026-09-05 11:27:11 | 27.72187 | -82.37654 | 79° | 27km/h | 5066m | 4.7m/s | -1.8°C | 0% | 0hPa | 0V | 00:00:00 | 00:00:00 | 00:00:00 | |
| ARGUS2 | 2026-09-05 11:26:51 | 27.72168 | -82.37713 | 97° | 20km/h | 4962m | 7.9m/s | -0.9°C | 0% | 0hPa | 0V | 00:00:00 | 00:00:00 | 00:00:00 | |
| ARGUS2 | 2026-09-05 11:26:31 | 27.72161 | -82.37784 | 361° | 7km/h | 4874m | 3.4m/s | -0.3°C | 0% | 0hPa | 0V | 00:00:00 | 00:00:00 | 00:00:00 | |
| ARGUS2 | 2026-09-05 11:26:10 | 27.72157 | -82.37862 | 61° | 11km/h | 4788m | 5.5m/s | 0.0°C | 0% | 0hPa | 0V | 00:00:00 | 00:00:00 | 00:00:00 | |
| ARGUS2 | 2026-09-05 11:25:49 | 27.72160 | -82.37913 | 73° | 11km/h | 4697m | 3.9m/s | 0.6°C | 0% | 0hPa | 0V | 00:00:00 | 00:00:00 | 00:00:00 | |
| ARGUS2 | 2026-09-05 11:25:29 | 27.72173 | -82.37936 | 245° | 5km/h | 4597m | 2.7m/s | 1.2°C | 0% | 0hPa | 0V | 00:00:00 | 00:00:00 | 00:00:00 | |
| ARGUS2 | 2026-09-05 11:25:08 | 27.72188 | -82.37981 | 135° | 16km/h | 4498m | 4.2m/s | 1.7°C | 0% | 0hPa | 0V | 00:00:00 | 00:00:00 | 00:00:00 | |
| ARGUS2 | 2026-09-05 11:24:48 | 27.72198 | -82.38021 | 63° | 9km/h | 4390m | 3.6m/s | 2.5°C | 0% | 0hPa | 0V | 00:00:00 | 00:00:00 | 00:00:00 | |
| ARGUS2 | 2026-09-05 11:24:26 | 27.72204 | -82.38013 | 332° | 16km/h | 4285m | 6.0m/s | 3.2°C | 0% | 0hPa | 0V | 00:00:00 | 00:00:00 | 00:00:00 | |
| ARGUS2 | 2026-09-05 11:24:05 | 27.72208 | -82.38038 | 170° | 5km/h | 4179m | 4.9m/s | 4.0°C | 0% | 0hPa | 0V | 00:00:00 | 00:00:00 | 00:00:00 | |
| ARGUS2 | 2026-09-05 11:23:23 | 27.72202 | -82.38079 | 14° | 15km/h | 3940m | 5.2m/s | 5.9°C | 0% | 0hPa | 0V | 00:00:00 | 00:00:00 | 00:00:00 | |
| ARGUS2 | 2026-09-05 11:22:48 | 27.72177 | -82.38136 | 225° | 4km/h | 3730m | 3.0m/s | 7.2°C | 0% | 0hPa | 0V | 00:00:00 | 00:00:00 | 00:00:00 | |
| ARGUS2 | 2026-09-05 11:22:08 | 27.72156 | -82.38221 | 67° | 22km/h | 3532m | 3.7m/s | 8.5°C | 0% | 0hPa | 0V | 00:00:00 | 00:00:00 | 00:00:00 | |
| ARGUS2 | 2026-09-05 11:21:47 | 27.72116 | -82.38273 | 107° | 13km/h | 3420m | 5.9m/s | 8.7°C | 0% | 0hPa | 0V | 00:00:00 | 00:00:00 | 00:00:00 | |
| ARGUS2 | 2026-09-05 11:16:53 | 27.71525 | -82.39116 | 62° | 9km/h | 1914m | 5.0m/s | 16.4°C | 0% | 0hPa | 0V | 00:00:00 | 00:00:00 | 00:00:00 | |
| ARGUS2 | 2026-09-05 11:16:33 | 27.71475 | -82.39183 | 61° | 9km/h | 1813m | 4.3m/s | 17.0°C | 0% | 0hPa | 0V | 00:00:00 | 00:00:00 | 00:00:00 |